<?xml version="1.0" encoding="UTF-8" standalone="no" ?>
<gpx xmlns="http://www.topografix.com/GPX/1/1" xmlns:xsi="http://www.w3.org/2001/XMLSchema-instance" xsi:schemaLocation="http://www.topografix.com/GPX/1/1 http://www.topografix.com/GPX/1/1/gpx.xsd" version="1.1" creator="VisuGPX - https://www.visugpx.com">
  <metadata>
    <name>Dole Centre Equestre - le Temple</name>
    <desc><![CDATA[Randonnée pédestre effectuée le 30 octobre 2019]]></desc>
  </metadata>
  <trk>
    <name><![CDATA[30 oct. 2019 à 09:01:20]]></name>
    <trkseg>
      <trkpt lat="47.07428" lon="5.52497">
        <ele>234</ele>
        <time>2019-10-30T08:01:20Z</time>
      </trkpt>
      <trkpt lat="47.07428" lon="5.52497">
        <ele>234</ele>
        <time>2019-10-30T08:01:20Z</time>
      </trkpt>
      <trkpt lat="47.07439" lon="5.52503">
        <ele>237</ele>
        <time>2019-10-30T08:01:38Z</time>
      </trkpt>
      <trkpt lat="47.07441" lon="5.52488">
        <ele>236</ele>
        <time>2019-10-30T08:01:58Z</time>
      </trkpt>
      <trkpt lat="47.07446" lon="5.52484">
        <ele>240</ele>
        <time>2019-10-30T08:02:51Z</time>
      </trkpt>
      <trkpt lat="47.07445" lon="5.52474">
        <ele>234</ele>
        <time>2019-10-30T08:03:27Z</time>
      </trkpt>
      <trkpt lat="47.0745" lon="5.52465">
        <ele>230</ele>
        <time>2019-10-30T08:04:49Z</time>
      </trkpt>
      <trkpt lat="47.07446" lon="5.52463">
        <ele>230</ele>
        <time>2019-10-30T08:05:02Z</time>
      </trkpt>
      <trkpt lat="47.07443" lon="5.52469">
        <ele>232</ele>
        <time>2019-10-30T08:05:05Z</time>
      </trkpt>
      <trkpt lat="47.07441" lon="5.52477">
        <ele>232</ele>
        <time>2019-10-30T08:05:09Z</time>
      </trkpt>
      <trkpt lat="47.07445" lon="5.52476">
        <ele>231</ele>
        <time>2019-10-30T08:05:31Z</time>
      </trkpt>
      <trkpt lat="47.07447" lon="5.5247">
        <ele>231</ele>
        <time>2019-10-30T08:05:35Z</time>
      </trkpt>
      <trkpt lat="47.07451" lon="5.52462">
        <ele>230</ele>
        <time>2019-10-30T08:05:39Z</time>
      </trkpt>
      <trkpt lat="47.07452" lon="5.52456">
        <ele>231</ele>
        <time>2019-10-30T08:05:42Z</time>
      </trkpt>
      <trkpt lat="47.07461" lon="5.52435">
        <ele>232</ele>
        <time>2019-10-30T08:05:55Z</time>
      </trkpt>
      <trkpt lat="47.07462" lon="5.52423">
        <ele>233</ele>
        <time>2019-10-30T08:06:02Z</time>
      </trkpt>
      <trkpt lat="47.07472" lon="5.52398">
        <ele>232</ele>
        <time>2019-10-30T08:06:17Z</time>
      </trkpt>
      <trkpt lat="47.07473" lon="5.52384">
        <ele>232</ele>
        <time>2019-10-30T08:06:25Z</time>
      </trkpt>
      <trkpt lat="47.07478" lon="5.52372">
        <ele>231</ele>
        <time>2019-10-30T08:06:33Z</time>
      </trkpt>
      <trkpt lat="47.07483" lon="5.5236">
        <ele>231</ele>
        <time>2019-10-30T08:06:40Z</time>
      </trkpt>
      <trkpt lat="47.07488" lon="5.52333">
        <ele>231</ele>
        <time>2019-10-30T08:06:54Z</time>
      </trkpt>
      <trkpt lat="47.07489" lon="5.52319">
        <ele>232</ele>
        <time>2019-10-30T08:07:02Z</time>
      </trkpt>
      <trkpt lat="47.07493" lon="5.52305">
        <ele>233</ele>
        <time>2019-10-30T08:07:10Z</time>
      </trkpt>
      <trkpt lat="47.07497" lon="5.52291">
        <ele>232</ele>
        <time>2019-10-30T08:07:16Z</time>
      </trkpt>
      <trkpt lat="47.07504" lon="5.52263">
        <ele>232</ele>
        <time>2019-10-30T08:07:30Z</time>
      </trkpt>
      <trkpt lat="47.07508" lon="5.5225">
        <ele>233</ele>
        <time>2019-10-30T08:07:36Z</time>
      </trkpt>
      <trkpt lat="47.07513" lon="5.52239">
        <ele>232</ele>
        <time>2019-10-30T08:07:45Z</time>
      </trkpt>
      <trkpt lat="47.07529" lon="5.52185">
        <ele>232</ele>
        <time>2019-10-30T08:08:15Z</time>
      </trkpt>
      <trkpt lat="47.07538" lon="5.52183">
        <ele>232</ele>
        <time>2019-10-30T08:08:26Z</time>
      </trkpt>
      <trkpt lat="47.07546" lon="5.52188">
        <ele>233</ele>
        <time>2019-10-30T08:08:32Z</time>
      </trkpt>
      <trkpt lat="47.07557" lon="5.52187">
        <ele>233</ele>
        <time>2019-10-30T08:08:41Z</time>
      </trkpt>
      <trkpt lat="47.07567" lon="5.52189">
        <ele>234</ele>
        <time>2019-10-30T08:08:47Z</time>
      </trkpt>
      <trkpt lat="47.07576" lon="5.52195">
        <ele>235</ele>
        <time>2019-10-30T08:08:54Z</time>
      </trkpt>
      <trkpt lat="47.07583" lon="5.52205">
        <ele>235</ele>
        <time>2019-10-30T08:09:02Z</time>
      </trkpt>
      <trkpt lat="47.0759" lon="5.52213">
        <ele>235</ele>
        <time>2019-10-30T08:09:11Z</time>
      </trkpt>
      <trkpt lat="47.07598" lon="5.52223">
        <ele>236</ele>
        <time>2019-10-30T08:09:20Z</time>
      </trkpt>
      <trkpt lat="47.07607" lon="5.52228">
        <ele>237</ele>
        <time>2019-10-30T08:09:28Z</time>
      </trkpt>
      <trkpt lat="47.07626" lon="5.52235">
        <ele>238</ele>
        <time>2019-10-30T08:09:41Z</time>
      </trkpt>
      <trkpt lat="47.07643" lon="5.52242">
        <ele>239</ele>
        <time>2019-10-30T08:09:54Z</time>
      </trkpt>
      <trkpt lat="47.07652" lon="5.52251">
        <ele>240</ele>
        <time>2019-10-30T08:10:04Z</time>
      </trkpt>
      <trkpt lat="47.07669" lon="5.52274">
        <ele>236</ele>
        <time>2019-10-30T08:10:28Z</time>
      </trkpt>
      <trkpt lat="47.07682" lon="5.52343">
        <ele>236</ele>
        <time>2019-10-30T08:11:03Z</time>
      </trkpt>
      <trkpt lat="47.07687" lon="5.52371">
        <ele>236</ele>
        <time>2019-10-30T08:11:20Z</time>
      </trkpt>
      <trkpt lat="47.07689" lon="5.52386">
        <ele>238</ele>
        <time>2019-10-30T08:11:27Z</time>
      </trkpt>
      <trkpt lat="47.07698" lon="5.52391">
        <ele>238</ele>
        <time>2019-10-30T08:11:35Z</time>
      </trkpt>
      <trkpt lat="47.07715" lon="5.52381">
        <ele>239</ele>
        <time>2019-10-30T08:11:50Z</time>
      </trkpt>
      <trkpt lat="47.07725" lon="5.52377">
        <ele>238</ele>
        <time>2019-10-30T08:11:56Z</time>
      </trkpt>
      <trkpt lat="47.07734" lon="5.52372">
        <ele>238</ele>
        <time>2019-10-30T08:12:02Z</time>
      </trkpt>
      <trkpt lat="47.07742" lon="5.52365">
        <ele>237</ele>
        <time>2019-10-30T08:12:10Z</time>
      </trkpt>
      <trkpt lat="47.07754" lon="5.52361">
        <ele>238</ele>
        <time>2019-10-30T08:12:16Z</time>
      </trkpt>
      <trkpt lat="47.07762" lon="5.52359">
        <ele>238</ele>
        <time>2019-10-30T08:12:21Z</time>
      </trkpt>
      <trkpt lat="47.07787" lon="5.5234">
        <ele>236</ele>
        <time>2019-10-30T08:12:44Z</time>
      </trkpt>
      <trkpt lat="47.07795" lon="5.52332">
        <ele>236</ele>
        <time>2019-10-30T08:12:53Z</time>
      </trkpt>
      <trkpt lat="47.07814" lon="5.52318">
        <ele>235</ele>
        <time>2019-10-30T08:13:07Z</time>
      </trkpt>
      <trkpt lat="47.07822" lon="5.52314">
        <ele>235</ele>
        <time>2019-10-30T08:13:13Z</time>
      </trkpt>
      <trkpt lat="47.07832" lon="5.52312">
        <ele>235</ele>
        <time>2019-10-30T08:13:20Z</time>
      </trkpt>
      <trkpt lat="47.0785" lon="5.523">
        <ele>235</ele>
        <time>2019-10-30T08:13:36Z</time>
      </trkpt>
      <trkpt lat="47.07857" lon="5.52296">
        <ele>234</ele>
        <time>2019-10-30T08:13:51Z</time>
      </trkpt>
      <trkpt lat="47.07866" lon="5.52287">
        <ele>235</ele>
        <time>2019-10-30T08:14:09Z</time>
      </trkpt>
      <trkpt lat="47.07878" lon="5.52292">
        <ele>233</ele>
        <time>2019-10-30T08:14:29Z</time>
      </trkpt>
      <trkpt lat="47.07895" lon="5.52286">
        <ele>232</ele>
        <time>2019-10-30T08:14:48Z</time>
      </trkpt>
      <trkpt lat="47.07902" lon="5.5228">
        <ele>231</ele>
        <time>2019-10-30T08:14:58Z</time>
      </trkpt>
      <trkpt lat="47.0791" lon="5.52291">
        <ele>228</ele>
        <time>2019-10-30T08:15:18Z</time>
      </trkpt>
      <trkpt lat="47.0792" lon="5.52304">
        <ele>227</ele>
        <time>2019-10-30T08:15:32Z</time>
      </trkpt>
      <trkpt lat="47.07942" lon="5.52313">
        <ele>226</ele>
        <time>2019-10-30T08:15:53Z</time>
      </trkpt>
      <trkpt lat="47.07957" lon="5.52329">
        <ele>226</ele>
        <time>2019-10-30T08:16:06Z</time>
      </trkpt>
      <trkpt lat="47.07965" lon="5.52335">
        <ele>226</ele>
        <time>2019-10-30T08:16:15Z</time>
      </trkpt>
      <trkpt lat="47.07965" lon="5.52349">
        <ele>226</ele>
        <time>2019-10-30T08:16:22Z</time>
      </trkpt>
      <trkpt lat="47.0797" lon="5.52361">
        <ele>226</ele>
        <time>2019-10-30T08:16:30Z</time>
      </trkpt>
      <trkpt lat="47.0798" lon="5.52369">
        <ele>226</ele>
        <time>2019-10-30T08:16:41Z</time>
      </trkpt>
      <trkpt lat="47.0799" lon="5.52371">
        <ele>226</ele>
        <time>2019-10-30T08:16:49Z</time>
      </trkpt>
      <trkpt lat="47.08" lon="5.52364">
        <ele>224</ele>
        <time>2019-10-30T08:17:04Z</time>
      </trkpt>
      <trkpt lat="47.08002" lon="5.52379">
        <ele>219</ele>
        <time>2019-10-30T08:17:54Z</time>
      </trkpt>
      <trkpt lat="47.08008" lon="5.5239">
        <ele>220</ele>
        <time>2019-10-30T08:18:02Z</time>
      </trkpt>
      <trkpt lat="47.08017" lon="5.5243">
        <ele>224</ele>
        <time>2019-10-30T08:18:25Z</time>
      </trkpt>
      <trkpt lat="47.08018" lon="5.52443">
        <ele>225</ele>
        <time>2019-10-30T08:18:32Z</time>
      </trkpt>
      <trkpt lat="47.08028" lon="5.52447">
        <ele>222</ele>
        <time>2019-10-30T08:18:44Z</time>
      </trkpt>
      <trkpt lat="47.08036" lon="5.52451">
        <ele>222</ele>
        <time>2019-10-30T08:18:52Z</time>
      </trkpt>
      <trkpt lat="47.08042" lon="5.52462">
        <ele>223</ele>
        <time>2019-10-30T08:19:01Z</time>
      </trkpt>
      <trkpt lat="47.08048" lon="5.52473">
        <ele>223</ele>
        <time>2019-10-30T08:19:10Z</time>
      </trkpt>
      <trkpt lat="47.08054" lon="5.5249">
        <ele>225</ele>
        <time>2019-10-30T08:19:23Z</time>
      </trkpt>
      <trkpt lat="47.08063" lon="5.52516">
        <ele>225</ele>
        <time>2019-10-30T08:19:41Z</time>
      </trkpt>
      <trkpt lat="47.08065" lon="5.52523">
        <ele>224</ele>
        <time>2019-10-30T08:19:46Z</time>
      </trkpt>
      <trkpt lat="47.08069" lon="5.52529">
        <ele>225</ele>
        <time>2019-10-30T08:19:51Z</time>
      </trkpt>
      <trkpt lat="47.08073" lon="5.52534">
        <ele>225</ele>
        <time>2019-10-30T08:19:56Z</time>
      </trkpt>
      <trkpt lat="47.08078" lon="5.52539">
        <ele>225</ele>
        <time>2019-10-30T08:20:02Z</time>
      </trkpt>
      <trkpt lat="47.08089" lon="5.52555">
        <ele>222</ele>
        <time>2019-10-30T08:20:15Z</time>
      </trkpt>
      <trkpt lat="47.08092" lon="5.52562">
        <ele>222</ele>
        <time>2019-10-30T08:20:20Z</time>
      </trkpt>
      <trkpt lat="47.08093" lon="5.52568">
        <ele>222</ele>
        <time>2019-10-30T08:20:24Z</time>
      </trkpt>
      <trkpt lat="47.08095" lon="5.52575">
        <ele>222</ele>
        <time>2019-10-30T08:20:29Z</time>
      </trkpt>
      <trkpt lat="47.08099" lon="5.52588">
        <ele>221</ele>
        <time>2019-10-30T08:20:37Z</time>
      </trkpt>
      <trkpt lat="47.081" lon="5.52596">
        <ele>221</ele>
        <time>2019-10-30T08:20:42Z</time>
      </trkpt>
      <trkpt lat="47.08103" lon="5.52602">
        <ele>222</ele>
        <time>2019-10-30T08:20:47Z</time>
      </trkpt>
      <trkpt lat="47.08107" lon="5.52621">
        <ele>222</ele>
        <time>2019-10-30T08:20:59Z</time>
      </trkpt>
      <trkpt lat="47.08108" lon="5.52629">
        <ele>221</ele>
        <time>2019-10-30T08:21:04Z</time>
      </trkpt>
      <trkpt lat="47.08117" lon="5.5264">
        <ele>220</ele>
        <time>2019-10-30T08:21:15Z</time>
      </trkpt>
      <trkpt lat="47.08119" lon="5.52653">
        <ele>221</ele>
        <time>2019-10-30T08:21:21Z</time>
      </trkpt>
      <trkpt lat="47.08126" lon="5.52664">
        <ele>222</ele>
        <time>2019-10-30T08:21:31Z</time>
      </trkpt>
      <trkpt lat="47.08132" lon="5.52681">
        <ele>222</ele>
        <time>2019-10-30T08:21:44Z</time>
      </trkpt>
      <trkpt lat="47.08145" lon="5.52701">
        <ele>220</ele>
        <time>2019-10-30T08:22:01Z</time>
      </trkpt>
      <trkpt lat="47.08154" lon="5.5271">
        <ele>220</ele>
        <time>2019-10-30T08:22:11Z</time>
      </trkpt>
      <trkpt lat="47.08159" lon="5.52724">
        <ele>221</ele>
        <time>2019-10-30T08:22:21Z</time>
      </trkpt>
      <trkpt lat="47.08164" lon="5.52741">
        <ele>221</ele>
        <time>2019-10-30T08:22:34Z</time>
      </trkpt>
      <trkpt lat="47.08165" lon="5.52756">
        <ele>221</ele>
        <time>2019-10-30T08:22:42Z</time>
      </trkpt>
      <trkpt lat="47.08169" lon="5.52769">
        <ele>221</ele>
        <time>2019-10-30T08:22:52Z</time>
      </trkpt>
      <trkpt lat="47.08175" lon="5.52778">
        <ele>221</ele>
        <time>2019-10-30T08:23:02Z</time>
      </trkpt>
      <trkpt lat="47.0818" lon="5.5279">
        <ele>221</ele>
        <time>2019-10-30T08:23:10Z</time>
      </trkpt>
      <trkpt lat="47.08195" lon="5.5281">
        <ele>219</ele>
        <time>2019-10-30T08:23:27Z</time>
      </trkpt>
      <trkpt lat="47.08205" lon="5.52829">
        <ele>219</ele>
        <time>2019-10-30T08:23:44Z</time>
      </trkpt>
      <trkpt lat="47.08213" lon="5.5284">
        <ele>220</ele>
        <time>2019-10-30T08:23:52Z</time>
      </trkpt>
      <trkpt lat="47.08218" lon="5.52852">
        <ele>220</ele>
        <time>2019-10-30T08:24:00Z</time>
      </trkpt>
      <trkpt lat="47.08221" lon="5.52864">
        <ele>222</ele>
        <time>2019-10-30T08:24:09Z</time>
      </trkpt>
      <trkpt lat="47.08222" lon="5.52878">
        <ele>221</ele>
        <time>2019-10-30T08:24:23Z</time>
      </trkpt>
      <trkpt lat="47.08224" lon="5.52892">
        <ele>221</ele>
        <time>2019-10-30T08:24:33Z</time>
      </trkpt>
      <trkpt lat="47.08226" lon="5.52905">
        <ele>221</ele>
        <time>2019-10-30T08:24:40Z</time>
      </trkpt>
      <trkpt lat="47.08224" lon="5.52919">
        <ele>221</ele>
        <time>2019-10-30T08:24:48Z</time>
      </trkpt>
      <trkpt lat="47.08228" lon="5.52932">
        <ele>220</ele>
        <time>2019-10-30T08:24:56Z</time>
      </trkpt>
      <trkpt lat="47.08233" lon="5.52942">
        <ele>219</ele>
        <time>2019-10-30T08:25:11Z</time>
      </trkpt>
      <trkpt lat="47.08232" lon="5.52949">
        <ele>220</ele>
        <time>2019-10-30T08:26:11Z</time>
      </trkpt>
      <trkpt lat="47.08233" lon="5.52959">
        <ele>217</ele>
        <time>2019-10-30T08:26:23Z</time>
      </trkpt>
      <trkpt lat="47.08237" lon="5.52967">
        <ele>219</ele>
        <time>2019-10-30T08:26:35Z</time>
      </trkpt>
      <trkpt lat="47.08249" lon="5.52992">
        <ele>210</ele>
        <time>2019-10-30T08:26:58Z</time>
      </trkpt>
      <trkpt lat="47.08259" lon="5.52996">
        <ele>210</ele>
        <time>2019-10-30T08:27:05Z</time>
      </trkpt>
      <trkpt lat="47.0826" lon="5.5301">
        <ele>209</ele>
        <time>2019-10-30T08:27:15Z</time>
      </trkpt>
      <trkpt lat="47.08252" lon="5.53018">
        <ele>210</ele>
        <time>2019-10-30T08:27:22Z</time>
      </trkpt>
      <trkpt lat="47.08243" lon="5.53022">
        <ele>210</ele>
        <time>2019-10-30T08:27:30Z</time>
      </trkpt>
      <trkpt lat="47.08225" lon="5.53033">
        <ele>209</ele>
        <time>2019-10-30T08:27:45Z</time>
      </trkpt>
      <trkpt lat="47.08216" lon="5.53039">
        <ele>209</ele>
        <time>2019-10-30T08:27:51Z</time>
      </trkpt>
      <trkpt lat="47.08206" lon="5.53042">
        <ele>209</ele>
        <time>2019-10-30T08:27:58Z</time>
      </trkpt>
      <trkpt lat="47.08198" lon="5.53048">
        <ele>209</ele>
        <time>2019-10-30T08:28:05Z</time>
      </trkpt>
      <trkpt lat="47.08189" lon="5.53053">
        <ele>210</ele>
        <time>2019-10-30T08:28:13Z</time>
      </trkpt>
      <trkpt lat="47.08181" lon="5.53058">
        <ele>209</ele>
        <time>2019-10-30T08:28:21Z</time>
      </trkpt>
      <trkpt lat="47.08164" lon="5.5307">
        <ele>211</ele>
        <time>2019-10-30T08:28:37Z</time>
      </trkpt>
      <trkpt lat="47.08135" lon="5.53083">
        <ele>211</ele>
        <time>2019-10-30T08:29:02Z</time>
      </trkpt>
      <trkpt lat="47.08126" lon="5.53092">
        <ele>211</ele>
        <time>2019-10-30T08:29:11Z</time>
      </trkpt>
      <trkpt lat="47.08122" lon="5.53095">
        <ele>211</ele>
        <time>2019-10-30T08:29:15Z</time>
      </trkpt>
      <trkpt lat="47.08112" lon="5.531">
        <ele>212</ele>
        <time>2019-10-30T08:29:24Z</time>
      </trkpt>
      <trkpt lat="47.08108" lon="5.53102">
        <ele>211</ele>
        <time>2019-10-30T08:29:28Z</time>
      </trkpt>
      <trkpt lat="47.08103" lon="5.53105">
        <ele>212</ele>
        <time>2019-10-30T08:29:32Z</time>
      </trkpt>
      <trkpt lat="47.08099" lon="5.5311">
        <ele>212</ele>
        <time>2019-10-30T08:29:36Z</time>
      </trkpt>
      <trkpt lat="47.08095" lon="5.53114">
        <ele>212</ele>
        <time>2019-10-30T08:29:40Z</time>
      </trkpt>
      <trkpt lat="47.0809" lon="5.53116">
        <ele>212</ele>
        <time>2019-10-30T08:29:44Z</time>
      </trkpt>
      <trkpt lat="47.08085" lon="5.53118">
        <ele>212</ele>
        <time>2019-10-30T08:29:47Z</time>
      </trkpt>
      <trkpt lat="47.0808" lon="5.53122">
        <ele>213</ele>
        <time>2019-10-30T08:29:51Z</time>
      </trkpt>
      <trkpt lat="47.08076" lon="5.53124">
        <ele>213</ele>
        <time>2019-10-30T08:29:55Z</time>
      </trkpt>
      <trkpt lat="47.08068" lon="5.53134">
        <ele>214</ele>
        <time>2019-10-30T08:30:05Z</time>
      </trkpt>
      <trkpt lat="47.0805" lon="5.53142">
        <ele>214</ele>
        <time>2019-10-30T08:30:19Z</time>
      </trkpt>
      <trkpt lat="47.08041" lon="5.53148">
        <ele>216</ele>
        <time>2019-10-30T08:30:28Z</time>
      </trkpt>
      <trkpt lat="47.08033" lon="5.53157">
        <ele>216</ele>
        <time>2019-10-30T08:30:37Z</time>
      </trkpt>
      <trkpt lat="47.08025" lon="5.53162">
        <ele>217</ele>
        <time>2019-10-30T08:30:44Z</time>
      </trkpt>
      <trkpt lat="47.08007" lon="5.53164">
        <ele>218</ele>
        <time>2019-10-30T08:30:57Z</time>
      </trkpt>
      <trkpt lat="47.08002" lon="5.53166">
        <ele>218</ele>
        <time>2019-10-30T08:31:01Z</time>
      </trkpt>
      <trkpt lat="47.07998" lon="5.53168">
        <ele>218</ele>
        <time>2019-10-30T08:31:05Z</time>
      </trkpt>
      <trkpt lat="47.07994" lon="5.53173">
        <ele>217</ele>
        <time>2019-10-30T08:31:10Z</time>
      </trkpt>
      <trkpt lat="47.07988" lon="5.53176">
        <ele>218</ele>
        <time>2019-10-30T08:31:15Z</time>
      </trkpt>
      <trkpt lat="47.07984" lon="5.5318">
        <ele>218</ele>
        <time>2019-10-30T08:31:20Z</time>
      </trkpt>
      <trkpt lat="47.07982" lon="5.53186">
        <ele>218</ele>
        <time>2019-10-30T08:31:24Z</time>
      </trkpt>
      <trkpt lat="47.07976" lon="5.53187">
        <ele>218</ele>
        <time>2019-10-30T08:31:29Z</time>
      </trkpt>
      <trkpt lat="47.07966" lon="5.53192">
        <ele>219</ele>
        <time>2019-10-30T08:31:37Z</time>
      </trkpt>
      <trkpt lat="47.0794" lon="5.53213">
        <ele>223</ele>
        <time>2019-10-30T08:32:02Z</time>
      </trkpt>
      <trkpt lat="47.07929" lon="5.5322">
        <ele>224</ele>
        <time>2019-10-30T08:32:14Z</time>
      </trkpt>
      <trkpt lat="47.0792" lon="5.53226">
        <ele>226</ele>
        <time>2019-10-30T08:32:23Z</time>
      </trkpt>
      <trkpt lat="47.07912" lon="5.53232">
        <ele>226</ele>
        <time>2019-10-30T08:32:31Z</time>
      </trkpt>
      <trkpt lat="47.07903" lon="5.53235">
        <ele>227</ele>
        <time>2019-10-30T08:32:40Z</time>
      </trkpt>
      <trkpt lat="47.079" lon="5.53246">
        <ele>228</ele>
        <time>2019-10-30T08:33:24Z</time>
      </trkpt>
      <trkpt lat="47.07903" lon="5.53265">
        <ele>228</ele>
        <time>2019-10-30T08:33:51Z</time>
      </trkpt>
      <trkpt lat="47.07907" lon="5.53279">
        <ele>231</ele>
        <time>2019-10-30T08:34:01Z</time>
      </trkpt>
      <trkpt lat="47.07911" lon="5.53293">
        <ele>231</ele>
        <time>2019-10-30T08:34:10Z</time>
      </trkpt>
      <trkpt lat="47.07911" lon="5.53308">
        <ele>234</ele>
        <time>2019-10-30T08:34:18Z</time>
      </trkpt>
      <trkpt lat="47.07913" lon="5.53322">
        <ele>234</ele>
        <time>2019-10-30T08:34:26Z</time>
      </trkpt>
      <trkpt lat="47.07919" lon="5.53333">
        <ele>234</ele>
        <time>2019-10-30T08:34:34Z</time>
      </trkpt>
      <trkpt lat="47.07921" lon="5.53361">
        <ele>237</ele>
        <time>2019-10-30T08:34:48Z</time>
      </trkpt>
      <trkpt lat="47.07924" lon="5.53375">
        <ele>237</ele>
        <time>2019-10-30T08:34:56Z</time>
      </trkpt>
      <trkpt lat="47.07929" lon="5.53388">
        <ele>237</ele>
        <time>2019-10-30T08:35:08Z</time>
      </trkpt>
      <trkpt lat="47.07933" lon="5.534">
        <ele>237</ele>
        <time>2019-10-30T08:35:16Z</time>
      </trkpt>
      <trkpt lat="47.07932" lon="5.53414">
        <ele>238</ele>
        <time>2019-10-30T08:35:25Z</time>
      </trkpt>
      <trkpt lat="47.07939" lon="5.53428">
        <ele>238</ele>
        <time>2019-10-30T08:35:36Z</time>
      </trkpt>
      <trkpt lat="47.0794" lon="5.53442">
        <ele>239</ele>
        <time>2019-10-30T08:35:43Z</time>
      </trkpt>
      <trkpt lat="47.07945" lon="5.53455">
        <ele>238</ele>
        <time>2019-10-30T08:35:50Z</time>
      </trkpt>
      <trkpt lat="47.07952" lon="5.53483">
        <ele>238</ele>
        <time>2019-10-30T08:36:06Z</time>
      </trkpt>
      <trkpt lat="47.07954" lon="5.53497">
        <ele>239</ele>
        <time>2019-10-30T08:36:14Z</time>
      </trkpt>
      <trkpt lat="47.07963" lon="5.5352">
        <ele>237</ele>
        <time>2019-10-30T08:36:34Z</time>
      </trkpt>
      <trkpt lat="47.07968" lon="5.53537">
        <ele>237</ele>
        <time>2019-10-30T08:36:45Z</time>
      </trkpt>
      <trkpt lat="47.07968" lon="5.53551">
        <ele>239</ele>
        <time>2019-10-30T08:36:53Z</time>
      </trkpt>
      <trkpt lat="47.0797" lon="5.53565">
        <ele>239</ele>
        <time>2019-10-30T08:37:01Z</time>
      </trkpt>
      <trkpt lat="47.07982" lon="5.53616">
        <ele>236</ele>
        <time>2019-10-30T08:37:34Z</time>
      </trkpt>
      <trkpt lat="47.07986" lon="5.53643">
        <ele>236</ele>
        <time>2019-10-30T08:37:48Z</time>
      </trkpt>
      <trkpt lat="47.07987" lon="5.53657">
        <ele>235</ele>
        <time>2019-10-30T08:37:56Z</time>
      </trkpt>
      <trkpt lat="47.07993" lon="5.53668">
        <ele>234</ele>
        <time>2019-10-30T08:38:05Z</time>
      </trkpt>
      <trkpt lat="47.07997" lon="5.53695">
        <ele>233</ele>
        <time>2019-10-30T08:38:24Z</time>
      </trkpt>
      <trkpt lat="47.08004" lon="5.53705">
        <ele>233</ele>
        <time>2019-10-30T08:38:34Z</time>
      </trkpt>
      <trkpt lat="47.08007" lon="5.5372">
        <ele>231</ele>
        <time>2019-10-30T08:38:43Z</time>
      </trkpt>
      <trkpt lat="47.0801" lon="5.53741">
        <ele>233</ele>
        <time>2019-10-30T08:39:01Z</time>
      </trkpt>
      <trkpt lat="47.08017" lon="5.53749">
        <ele>232</ele>
        <time>2019-10-30T08:39:06Z</time>
      </trkpt>
      <trkpt lat="47.08027" lon="5.53772">
        <ele>230</ele>
        <time>2019-10-30T08:39:24Z</time>
      </trkpt>
      <trkpt lat="47.08028" lon="5.53785">
        <ele>230</ele>
        <time>2019-10-30T08:39:32Z</time>
      </trkpt>
      <trkpt lat="47.08023" lon="5.53807">
        <ele>226</ele>
        <time>2019-10-30T08:40:02Z</time>
      </trkpt>
      <trkpt lat="47.08024" lon="5.53826">
        <ele>226</ele>
        <time>2019-10-30T08:40:18Z</time>
      </trkpt>
      <trkpt lat="47.0803" lon="5.5384">
        <ele>227</ele>
        <time>2019-10-30T08:40:33Z</time>
      </trkpt>
      <trkpt lat="47.08033" lon="5.53854">
        <ele>228</ele>
        <time>2019-10-30T08:40:45Z</time>
      </trkpt>
      <trkpt lat="47.08035" lon="5.53867">
        <ele>228</ele>
        <time>2019-10-30T08:41:02Z</time>
      </trkpt>
      <trkpt lat="47.08047" lon="5.53912">
        <ele>233</ele>
        <time>2019-10-30T08:41:39Z</time>
      </trkpt>
      <trkpt lat="47.08051" lon="5.53925">
        <ele>233</ele>
        <time>2019-10-30T08:41:48Z</time>
      </trkpt>
      <trkpt lat="47.08062" lon="5.53963">
        <ele>237</ele>
        <time>2019-10-30T08:42:13Z</time>
      </trkpt>
      <trkpt lat="47.08061" lon="5.53977">
        <ele>238</ele>
        <time>2019-10-30T08:42:18Z</time>
      </trkpt>
      <trkpt lat="47.08064" lon="5.53989">
        <ele>239</ele>
        <time>2019-10-30T08:42:27Z</time>
      </trkpt>
      <trkpt lat="47.08071" lon="5.53999">
        <ele>239</ele>
        <time>2019-10-30T08:42:34Z</time>
      </trkpt>
      <trkpt lat="47.08078" lon="5.54027">
        <ele>240</ele>
        <time>2019-10-30T08:42:55Z</time>
      </trkpt>
      <trkpt lat="47.0808" lon="5.54043">
        <ele>241</ele>
        <time>2019-10-30T08:43:03Z</time>
      </trkpt>
      <trkpt lat="47.08083" lon="5.54055">
        <ele>241</ele>
        <time>2019-10-30T08:43:09Z</time>
      </trkpt>
      <trkpt lat="47.08086" lon="5.54068">
        <ele>242</ele>
        <time>2019-10-30T08:43:16Z</time>
      </trkpt>
      <trkpt lat="47.0809" lon="5.54088">
        <ele>242</ele>
        <time>2019-10-30T08:43:31Z</time>
      </trkpt>
      <trkpt lat="47.08095" lon="5.541">
        <ele>242</ele>
        <time>2019-10-30T08:43:39Z</time>
      </trkpt>
      <trkpt lat="47.08099" lon="5.54112">
        <ele>242</ele>
        <time>2019-10-30T08:43:47Z</time>
      </trkpt>
      <trkpt lat="47.08103" lon="5.54126">
        <ele>242</ele>
        <time>2019-10-30T08:43:55Z</time>
      </trkpt>
      <trkpt lat="47.08103" lon="5.5414">
        <ele>241</ele>
        <time>2019-10-30T08:44:05Z</time>
      </trkpt>
      <trkpt lat="47.08114" lon="5.54179">
        <ele>240</ele>
        <time>2019-10-30T08:44:30Z</time>
      </trkpt>
      <trkpt lat="47.08117" lon="5.54197">
        <ele>241</ele>
        <time>2019-10-30T08:44:44Z</time>
      </trkpt>
      <trkpt lat="47.0812" lon="5.54211">
        <ele>241</ele>
        <time>2019-10-30T08:44:53Z</time>
      </trkpt>
      <trkpt lat="47.08124" lon="5.54223">
        <ele>241</ele>
        <time>2019-10-30T08:45:02Z</time>
      </trkpt>
      <trkpt lat="47.08127" lon="5.54235">
        <ele>236</ele>
        <time>2019-10-30T08:46:39Z</time>
      </trkpt>
      <trkpt lat="47.08132" lon="5.54255">
        <ele>228</ele>
        <time>2019-10-30T08:47:58Z</time>
      </trkpt>
      <trkpt lat="47.08139" lon="5.54274">
        <ele>229</ele>
        <time>2019-10-30T08:48:16Z</time>
      </trkpt>
      <trkpt lat="47.08145" lon="5.54284">
        <ele>231</ele>
        <time>2019-10-30T08:48:25Z</time>
      </trkpt>
      <trkpt lat="47.08148" lon="5.54297">
        <ele>231</ele>
        <time>2019-10-30T08:48:33Z</time>
      </trkpt>
      <trkpt lat="47.08149" lon="5.5431">
        <ele>231</ele>
        <time>2019-10-30T08:48:41Z</time>
      </trkpt>
      <trkpt lat="47.08148" lon="5.54328">
        <ele>231</ele>
        <time>2019-10-30T08:48:53Z</time>
      </trkpt>
      <trkpt lat="47.08154" lon="5.5435">
        <ele>232</ele>
        <time>2019-10-30T08:49:12Z</time>
      </trkpt>
      <trkpt lat="47.08154" lon="5.54364">
        <ele>231</ele>
        <time>2019-10-30T08:49:20Z</time>
      </trkpt>
      <trkpt lat="47.08165" lon="5.54387">
        <ele>229</ele>
        <time>2019-10-30T08:49:36Z</time>
      </trkpt>
      <trkpt lat="47.08167" lon="5.54401">
        <ele>230</ele>
        <time>2019-10-30T08:49:46Z</time>
      </trkpt>
      <trkpt lat="47.0817" lon="5.54414">
        <ele>229</ele>
        <time>2019-10-30T08:49:54Z</time>
      </trkpt>
      <trkpt lat="47.08175" lon="5.54428">
        <ele>228</ele>
        <time>2019-10-30T08:50:08Z</time>
      </trkpt>
      <trkpt lat="47.08176" lon="5.54442">
        <ele>228</ele>
        <time>2019-10-30T08:50:17Z</time>
      </trkpt>
      <trkpt lat="47.08183" lon="5.54451">
        <ele>226</ele>
        <time>2019-10-30T08:50:33Z</time>
      </trkpt>
      <trkpt lat="47.08188" lon="5.54447">
        <ele>225</ele>
        <time>2019-10-30T08:50:57Z</time>
      </trkpt>
      <trkpt lat="47.08195" lon="5.54443">
        <ele>226</ele>
        <time>2019-10-30T08:52:03Z</time>
      </trkpt>
      <trkpt lat="47.082" lon="5.54441">
        <ele>227</ele>
        <time>2019-10-30T08:52:08Z</time>
      </trkpt>
      <trkpt lat="47.08211" lon="5.54432">
        <ele>227</ele>
        <time>2019-10-30T08:52:19Z</time>
      </trkpt>
      <trkpt lat="47.08219" lon="5.54425">
        <ele>228</ele>
        <time>2019-10-30T08:52:28Z</time>
      </trkpt>
      <trkpt lat="47.08229" lon="5.54419">
        <ele>228</ele>
        <time>2019-10-30T08:52:36Z</time>
      </trkpt>
      <trkpt lat="47.08234" lon="5.54417">
        <ele>228</ele>
        <time>2019-10-30T08:52:41Z</time>
      </trkpt>
      <trkpt lat="47.08239" lon="5.54415">
        <ele>228</ele>
        <time>2019-10-30T08:52:46Z</time>
      </trkpt>
      <trkpt lat="47.08253" lon="5.54416">
        <ele>227</ele>
        <time>2019-10-30T08:52:57Z</time>
      </trkpt>
      <trkpt lat="47.08261" lon="5.54425">
        <ele>228</ele>
        <time>2019-10-30T08:53:04Z</time>
      </trkpt>
      <trkpt lat="47.08268" lon="5.54435">
        <ele>228</ele>
        <time>2019-10-30T08:53:13Z</time>
      </trkpt>
      <trkpt lat="47.08298" lon="5.54454">
        <ele>225</ele>
        <time>2019-10-30T08:53:43Z</time>
      </trkpt>
      <trkpt lat="47.08324" lon="5.54469">
        <ele>226</ele>
        <time>2019-10-30T08:54:04Z</time>
      </trkpt>
      <trkpt lat="47.08333" lon="5.54472">
        <ele>225</ele>
        <time>2019-10-30T08:54:12Z</time>
      </trkpt>
      <trkpt lat="47.08341" lon="5.5448">
        <ele>224</ele>
        <time>2019-10-30T08:54:21Z</time>
      </trkpt>
      <trkpt lat="47.0835" lon="5.54488">
        <ele>223</ele>
        <time>2019-10-30T08:54:29Z</time>
      </trkpt>
      <trkpt lat="47.08369" lon="5.54519">
        <ele>221</ele>
        <time>2019-10-30T08:54:55Z</time>
      </trkpt>
      <trkpt lat="47.08377" lon="5.54526">
        <ele>220</ele>
        <time>2019-10-30T08:55:01Z</time>
      </trkpt>
      <trkpt lat="47.08386" lon="5.54531">
        <ele>220</ele>
        <time>2019-10-30T08:55:11Z</time>
      </trkpt>
      <trkpt lat="47.08404" lon="5.54525">
        <ele>220</ele>
        <time>2019-10-30T08:55:29Z</time>
      </trkpt>
      <trkpt lat="47.08415" lon="5.5452">
        <ele>219</ele>
        <time>2019-10-30T08:55:39Z</time>
      </trkpt>
      <trkpt lat="47.08423" lon="5.54513">
        <ele>219</ele>
        <time>2019-10-30T08:55:47Z</time>
      </trkpt>
      <trkpt lat="47.08463" lon="5.54506">
        <ele>214</ele>
        <time>2019-10-30T08:56:21Z</time>
      </trkpt>
      <trkpt lat="47.08484" lon="5.54509">
        <ele>212</ele>
        <time>2019-10-30T08:56:41Z</time>
      </trkpt>
      <trkpt lat="47.08518" lon="5.54503">
        <ele>210</ele>
        <time>2019-10-30T08:57:12Z</time>
      </trkpt>
      <trkpt lat="47.08527" lon="5.545">
        <ele>210</ele>
        <time>2019-10-30T08:57:19Z</time>
      </trkpt>
      <trkpt lat="47.08536" lon="5.54497">
        <ele>209</ele>
        <time>2019-10-30T08:57:27Z</time>
      </trkpt>
      <trkpt lat="47.08556" lon="5.54496">
        <ele>207</ele>
        <time>2019-10-30T08:57:44Z</time>
      </trkpt>
      <trkpt lat="47.08566" lon="5.5449">
        <ele>207</ele>
        <time>2019-10-30T08:58:05Z</time>
      </trkpt>
      <trkpt lat="47.08568" lon="5.54484">
        <ele>207</ele>
        <time>2019-10-30T08:58:09Z</time>
      </trkpt>
      <trkpt lat="47.0857" lon="5.54469">
        <ele>206</ele>
        <time>2019-10-30T08:58:17Z</time>
      </trkpt>
      <trkpt lat="47.08572" lon="5.54454">
        <ele>207</ele>
        <time>2019-10-30T08:58:25Z</time>
      </trkpt>
      <trkpt lat="47.08574" lon="5.54448">
        <ele>207</ele>
        <time>2019-10-30T08:58:29Z</time>
      </trkpt>
      <trkpt lat="47.08576" lon="5.54441">
        <ele>206</ele>
        <time>2019-10-30T08:58:33Z</time>
      </trkpt>
      <trkpt lat="47.08579" lon="5.54435">
        <ele>207</ele>
        <time>2019-10-30T08:58:37Z</time>
      </trkpt>
      <trkpt lat="47.08582" lon="5.54429">
        <ele>206</ele>
        <time>2019-10-30T08:58:41Z</time>
      </trkpt>
      <trkpt lat="47.08585" lon="5.54424">
        <ele>206</ele>
        <time>2019-10-30T08:58:46Z</time>
      </trkpt>
      <trkpt lat="47.08593" lon="5.54414">
        <ele>205</ele>
        <time>2019-10-30T08:58:55Z</time>
      </trkpt>
      <trkpt lat="47.08597" lon="5.54413">
        <ele>205</ele>
        <time>2019-10-30T08:58:59Z</time>
      </trkpt>
      <trkpt lat="47.08621" lon="5.54415">
        <ele>205</ele>
        <time>2019-10-30T08:59:18Z</time>
      </trkpt>
      <trkpt lat="47.08631" lon="5.54417">
        <ele>203</ele>
        <time>2019-10-30T08:59:26Z</time>
      </trkpt>
      <trkpt lat="47.08636" lon="5.54418">
        <ele>203</ele>
        <time>2019-10-30T08:59:30Z</time>
      </trkpt>
      <trkpt lat="47.08641" lon="5.54419">
        <ele>204</ele>
        <time>2019-10-30T08:59:34Z</time>
      </trkpt>
      <trkpt lat="47.08646" lon="5.54421">
        <ele>204</ele>
        <time>2019-10-30T08:59:38Z</time>
      </trkpt>
      <trkpt lat="47.08654" lon="5.54424">
        <ele>205</ele>
        <time>2019-10-30T08:59:43Z</time>
      </trkpt>
      <trkpt lat="47.08672" lon="5.54434">
        <ele>205</ele>
        <time>2019-10-30T08:59:57Z</time>
      </trkpt>
      <trkpt lat="47.08698" lon="5.54453">
        <ele>206</ele>
        <time>2019-10-30T09:00:21Z</time>
      </trkpt>
      <trkpt lat="47.08707" lon="5.54459">
        <ele>207</ele>
        <time>2019-10-30T09:00:29Z</time>
      </trkpt>
      <trkpt lat="47.08712" lon="5.54462">
        <ele>207</ele>
        <time>2019-10-30T09:00:34Z</time>
      </trkpt>
      <trkpt lat="47.08717" lon="5.54463">
        <ele>207</ele>
        <time>2019-10-30T09:00:38Z</time>
      </trkpt>
      <trkpt lat="47.08728" lon="5.54468">
        <ele>206</ele>
        <time>2019-10-30T09:00:47Z</time>
      </trkpt>
      <trkpt lat="47.08731" lon="5.54472">
        <ele>206</ele>
        <time>2019-10-30T09:00:50Z</time>
      </trkpt>
      <trkpt lat="47.08745" lon="5.54493">
        <ele>207</ele>
        <time>2019-10-30T09:01:06Z</time>
      </trkpt>
      <trkpt lat="47.08754" lon="5.54496">
        <ele>208</ele>
        <time>2019-10-30T09:01:09Z</time>
      </trkpt>
      <trkpt lat="47.08759" lon="5.54496">
        <ele>208</ele>
        <time>2019-10-30T09:01:11Z</time>
      </trkpt>
      <trkpt lat="47.08763" lon="5.54497">
        <ele>208</ele>
        <time>2019-10-30T09:01:15Z</time>
      </trkpt>
      <trkpt lat="47.08767" lon="5.54503">
        <ele>208</ele>
        <time>2019-10-30T09:01:23Z</time>
      </trkpt>
      <trkpt lat="47.08773" lon="5.54504">
        <ele>208</ele>
        <time>2019-10-30T09:01:27Z</time>
      </trkpt>
      <trkpt lat="47.08777" lon="5.5451">
        <ele>207</ele>
        <time>2019-10-30T09:01:31Z</time>
      </trkpt>
      <trkpt lat="47.08793" lon="5.54531">
        <ele>208</ele>
        <time>2019-10-30T09:01:52Z</time>
      </trkpt>
      <trkpt lat="47.08797" lon="5.54541">
        <ele>209</ele>
        <time>2019-10-30T09:02:08Z</time>
      </trkpt>
      <trkpt lat="47.088" lon="5.54547">
        <ele>212</ele>
        <time>2019-10-30T09:04:02Z</time>
      </trkpt>
      <trkpt lat="47.0882" lon="5.54568">
        <ele>214</ele>
        <time>2019-10-30T09:09:19Z</time>
      </trkpt>
      <trkpt lat="47.08824" lon="5.54572">
        <ele>214</ele>
        <time>2019-10-30T09:09:24Z</time>
      </trkpt>
      <trkpt lat="47.08827" lon="5.54578">
        <ele>215</ele>
        <time>2019-10-30T09:09:29Z</time>
      </trkpt>
      <trkpt lat="47.08832" lon="5.54584">
        <ele>215</ele>
        <time>2019-10-30T09:09:34Z</time>
      </trkpt>
      <trkpt lat="47.08843" lon="5.54599">
        <ele>218</ele>
        <time>2019-10-30T09:09:46Z</time>
      </trkpt>
      <trkpt lat="47.08852" lon="5.54615">
        <ele>218</ele>
        <time>2019-10-30T09:09:59Z</time>
      </trkpt>
      <trkpt lat="47.08871" lon="5.5465">
        <ele>220</ele>
        <time>2019-10-30T09:10:22Z</time>
      </trkpt>
      <trkpt lat="47.08896" lon="5.54671">
        <ele>223</ele>
        <time>2019-10-30T09:10:45Z</time>
      </trkpt>
      <trkpt lat="47.08901" lon="5.54682">
        <ele>223</ele>
        <time>2019-10-30T09:10:53Z</time>
      </trkpt>
      <trkpt lat="47.08909" lon="5.54696">
        <ele>221</ele>
        <time>2019-10-30T09:11:07Z</time>
      </trkpt>
      <trkpt lat="47.08926" lon="5.54744">
        <ele>226</ele>
        <time>2019-10-30T09:11:43Z</time>
      </trkpt>
      <trkpt lat="47.08931" lon="5.54756">
        <ele>225</ele>
        <time>2019-10-30T09:11:51Z</time>
      </trkpt>
      <trkpt lat="47.08935" lon="5.54769">
        <ele>225</ele>
        <time>2019-10-30T09:11:59Z</time>
      </trkpt>
      <trkpt lat="47.08939" lon="5.54782">
        <ele>227</ele>
        <time>2019-10-30T09:12:07Z</time>
      </trkpt>
      <trkpt lat="47.08943" lon="5.54796">
        <ele>228</ele>
        <time>2019-10-30T09:12:15Z</time>
      </trkpt>
      <trkpt lat="47.08946" lon="5.54809">
        <ele>228</ele>
        <time>2019-10-30T09:12:22Z</time>
      </trkpt>
      <trkpt lat="47.08948" lon="5.54823">
        <ele>229</ele>
        <time>2019-10-30T09:12:30Z</time>
      </trkpt>
      <trkpt lat="47.08947" lon="5.54837">
        <ele>229</ele>
        <time>2019-10-30T09:12:38Z</time>
      </trkpt>
      <trkpt lat="47.08945" lon="5.54853">
        <ele>230</ele>
        <time>2019-10-30T09:12:48Z</time>
      </trkpt>
      <trkpt lat="47.08936" lon="5.54897">
        <ele>229</ele>
        <time>2019-10-30T09:13:16Z</time>
      </trkpt>
      <trkpt lat="47.08931" lon="5.54907">
        <ele>229</ele>
        <time>2019-10-30T09:13:26Z</time>
      </trkpt>
      <trkpt lat="47.08918" lon="5.54938">
        <ele>230</ele>
        <time>2019-10-30T09:13:54Z</time>
      </trkpt>
      <trkpt lat="47.08911" lon="5.54961">
        <ele>230</ele>
        <time>2019-10-30T09:14:13Z</time>
      </trkpt>
      <trkpt lat="47.08902" lon="5.5497">
        <ele>230</ele>
        <time>2019-10-30T09:14:26Z</time>
      </trkpt>
      <trkpt lat="47.089" lon="5.54989">
        <ele>230</ele>
        <time>2019-10-30T09:14:41Z</time>
      </trkpt>
      <trkpt lat="47.08902" lon="5.55002">
        <ele>231</ele>
        <time>2019-10-30T09:14:50Z</time>
      </trkpt>
      <trkpt lat="47.08906" lon="5.55017">
        <ele>232</ele>
        <time>2019-10-30T09:15:02Z</time>
      </trkpt>
      <trkpt lat="47.08907" lon="5.55032">
        <ele>233</ele>
        <time>2019-10-30T09:15:14Z</time>
      </trkpt>
      <trkpt lat="47.08912" lon="5.55043">
        <ele>233</ele>
        <time>2019-10-30T09:15:21Z</time>
      </trkpt>
      <trkpt lat="47.08916" lon="5.55056">
        <ele>234</ele>
        <time>2019-10-30T09:15:30Z</time>
      </trkpt>
      <trkpt lat="47.08925" lon="5.55062">
        <ele>234</ele>
        <time>2019-10-30T09:15:34Z</time>
      </trkpt>
      <trkpt lat="47.08928" lon="5.55078">
        <ele>234</ele>
        <time>2019-10-30T09:15:43Z</time>
      </trkpt>
      <trkpt lat="47.08926" lon="5.55092">
        <ele>235</ele>
        <time>2019-10-30T09:15:51Z</time>
      </trkpt>
      <trkpt lat="47.08929" lon="5.55116">
        <ele>234</ele>
        <time>2019-10-30T09:16:08Z</time>
      </trkpt>
      <trkpt lat="47.08934" lon="5.55142">
        <ele>235</ele>
        <time>2019-10-30T09:16:27Z</time>
      </trkpt>
      <trkpt lat="47.08939" lon="5.55154">
        <ele>234</ele>
        <time>2019-10-30T09:16:36Z</time>
      </trkpt>
      <trkpt lat="47.08944" lon="5.55181">
        <ele>233</ele>
        <time>2019-10-30T09:16:49Z</time>
      </trkpt>
      <trkpt lat="47.08947" lon="5.55194">
        <ele>233</ele>
        <time>2019-10-30T09:16:57Z</time>
      </trkpt>
      <trkpt lat="47.08951" lon="5.55206">
        <ele>233</ele>
        <time>2019-10-30T09:17:05Z</time>
      </trkpt>
      <trkpt lat="47.08952" lon="5.55229">
        <ele>233</ele>
        <time>2019-10-30T09:17:21Z</time>
      </trkpt>
      <trkpt lat="47.08959" lon="5.5524">
        <ele>233</ele>
        <time>2019-10-30T09:17:27Z</time>
      </trkpt>
      <trkpt lat="47.08964" lon="5.55252">
        <ele>232</ele>
        <time>2019-10-30T09:17:35Z</time>
      </trkpt>
      <trkpt lat="47.08967" lon="5.55266">
        <ele>233</ele>
        <time>2019-10-30T09:17:44Z</time>
      </trkpt>
      <trkpt lat="47.08969" lon="5.5528">
        <ele>233</ele>
        <time>2019-10-30T09:17:53Z</time>
      </trkpt>
      <trkpt lat="47.0897" lon="5.55295">
        <ele>233</ele>
        <time>2019-10-30T09:18:02Z</time>
      </trkpt>
      <trkpt lat="47.08978" lon="5.55302">
        <ele>232</ele>
        <time>2019-10-30T09:18:09Z</time>
      </trkpt>
      <trkpt lat="47.08982" lon="5.55318">
        <ele>232</ele>
        <time>2019-10-30T09:18:19Z</time>
      </trkpt>
      <trkpt lat="47.08983" lon="5.55332">
        <ele>231</ele>
        <time>2019-10-30T09:18:28Z</time>
      </trkpt>
      <trkpt lat="47.08986" lon="5.55346">
        <ele>231</ele>
        <time>2019-10-30T09:18:37Z</time>
      </trkpt>
      <trkpt lat="47.08993" lon="5.55372">
        <ele>228</ele>
        <time>2019-10-30T09:18:52Z</time>
      </trkpt>
      <trkpt lat="47.08992" lon="5.55379">
        <ele>228</ele>
        <time>2019-10-30T09:18:58Z</time>
      </trkpt>
      <trkpt lat="47.08982" lon="5.55379">
        <ele>224</ele>
        <time>2019-10-30T09:19:21Z</time>
      </trkpt>
      <trkpt lat="47.08978" lon="5.55382">
        <ele>223</ele>
        <time>2019-10-30T09:19:25Z</time>
      </trkpt>
      <trkpt lat="47.08974" lon="5.5539">
        <ele>223</ele>
        <time>2019-10-30T09:19:33Z</time>
      </trkpt>
      <trkpt lat="47.0897" lon="5.55393">
        <ele>222</ele>
        <time>2019-10-30T09:19:37Z</time>
      </trkpt>
      <trkpt lat="47.08965" lon="5.55393">
        <ele>222</ele>
        <time>2019-10-30T09:19:41Z</time>
      </trkpt>
      <trkpt lat="47.0896" lon="5.55394">
        <ele>222</ele>
        <time>2019-10-30T09:19:44Z</time>
      </trkpt>
      <trkpt lat="47.08954" lon="5.55396">
        <ele>222</ele>
        <time>2019-10-30T09:19:48Z</time>
      </trkpt>
      <trkpt lat="47.0895" lon="5.554">
        <ele>224</ele>
        <time>2019-10-30T09:19:52Z</time>
      </trkpt>
      <trkpt lat="47.08907" lon="5.55421">
        <ele>229</ele>
        <time>2019-10-30T09:20:28Z</time>
      </trkpt>
      <trkpt lat="47.08869" lon="5.55443">
        <ele>233</ele>
        <time>2019-10-30T09:21:00Z</time>
      </trkpt>
      <trkpt lat="47.08861" lon="5.55449">
        <ele>234</ele>
        <time>2019-10-30T09:21:07Z</time>
      </trkpt>
      <trkpt lat="47.08852" lon="5.55454">
        <ele>235</ele>
        <time>2019-10-30T09:21:16Z</time>
      </trkpt>
      <trkpt lat="47.08845" lon="5.55459">
        <ele>235</ele>
        <time>2019-10-30T09:21:23Z</time>
      </trkpt>
      <trkpt lat="47.0884" lon="5.55461">
        <ele>235</ele>
        <time>2019-10-30T09:21:26Z</time>
      </trkpt>
      <trkpt lat="47.08831" lon="5.55461">
        <ele>236</ele>
        <time>2019-10-30T09:21:33Z</time>
      </trkpt>
      <trkpt lat="47.08826" lon="5.55458">
        <ele>237</ele>
        <time>2019-10-30T09:21:37Z</time>
      </trkpt>
      <trkpt lat="47.08821" lon="5.55462">
        <ele>237</ele>
        <time>2019-10-30T09:21:41Z</time>
      </trkpt>
      <trkpt lat="47.08816" lon="5.55465">
        <ele>237</ele>
        <time>2019-10-30T09:21:45Z</time>
      </trkpt>
      <trkpt lat="47.08812" lon="5.55467">
        <ele>238</ele>
        <time>2019-10-30T09:21:49Z</time>
      </trkpt>
      <trkpt lat="47.08808" lon="5.55472">
        <ele>238</ele>
        <time>2019-10-30T09:21:53Z</time>
      </trkpt>
      <trkpt lat="47.08797" lon="5.55482">
        <ele>238</ele>
        <time>2019-10-30T09:22:03Z</time>
      </trkpt>
      <trkpt lat="47.08793" lon="5.55486">
        <ele>238</ele>
        <time>2019-10-30T09:22:07Z</time>
      </trkpt>
      <trkpt lat="47.08787" lon="5.55488">
        <ele>238</ele>
        <time>2019-10-30T09:22:11Z</time>
      </trkpt>
      <trkpt lat="47.08751" lon="5.5551">
        <ele>239</ele>
        <time>2019-10-30T09:22:43Z</time>
      </trkpt>
      <trkpt lat="47.08746" lon="5.55514">
        <ele>239</ele>
        <time>2019-10-30T09:22:47Z</time>
      </trkpt>
      <trkpt lat="47.08742" lon="5.55516">
        <ele>238</ele>
        <time>2019-10-30T09:22:51Z</time>
      </trkpt>
      <trkpt lat="47.08737" lon="5.55518">
        <ele>238</ele>
        <time>2019-10-30T09:22:56Z</time>
      </trkpt>
      <trkpt lat="47.08733" lon="5.55521">
        <ele>238</ele>
        <time>2019-10-30T09:23:00Z</time>
      </trkpt>
      <trkpt lat="47.08728" lon="5.55525">
        <ele>238</ele>
        <time>2019-10-30T09:23:05Z</time>
      </trkpt>
      <trkpt lat="47.08719" lon="5.55531">
        <ele>238</ele>
        <time>2019-10-30T09:23:12Z</time>
      </trkpt>
      <trkpt lat="47.08714" lon="5.55535">
        <ele>238</ele>
        <time>2019-10-30T09:23:16Z</time>
      </trkpt>
      <trkpt lat="47.08705" lon="5.55542">
        <ele>237</ele>
        <time>2019-10-30T09:23:25Z</time>
      </trkpt>
      <trkpt lat="47.08701" lon="5.55544">
        <ele>238</ele>
        <time>2019-10-30T09:23:29Z</time>
      </trkpt>
      <trkpt lat="47.08696" lon="5.55545">
        <ele>238</ele>
        <time>2019-10-30T09:23:33Z</time>
      </trkpt>
      <trkpt lat="47.08687" lon="5.55549">
        <ele>238</ele>
        <time>2019-10-30T09:23:40Z</time>
      </trkpt>
      <trkpt lat="47.08674" lon="5.55559">
        <ele>239</ele>
        <time>2019-10-30T09:23:50Z</time>
      </trkpt>
      <trkpt lat="47.08659" lon="5.55564">
        <ele>241</ele>
        <time>2019-10-30T09:24:02Z</time>
      </trkpt>
      <trkpt lat="47.08651" lon="5.55572">
        <ele>241</ele>
        <time>2019-10-30T09:24:12Z</time>
      </trkpt>
      <trkpt lat="47.08646" lon="5.55574">
        <ele>242</ele>
        <time>2019-10-30T09:24:16Z</time>
      </trkpt>
      <trkpt lat="47.0863" lon="5.55584">
        <ele>242</ele>
        <time>2019-10-30T09:24:30Z</time>
      </trkpt>
      <trkpt lat="47.08625" lon="5.55585">
        <ele>241</ele>
        <time>2019-10-30T09:24:34Z</time>
      </trkpt>
      <trkpt lat="47.08611" lon="5.55594">
        <ele>242</ele>
        <time>2019-10-30T09:24:46Z</time>
      </trkpt>
      <trkpt lat="47.08601" lon="5.55603">
        <ele>242</ele>
        <time>2019-10-30T09:24:54Z</time>
      </trkpt>
      <trkpt lat="47.08595" lon="5.55604">
        <ele>243</ele>
        <time>2019-10-30T09:24:58Z</time>
      </trkpt>
      <trkpt lat="47.08591" lon="5.55603">
        <ele>242</ele>
        <time>2019-10-30T09:25:01Z</time>
      </trkpt>
      <trkpt lat="47.08586" lon="5.55606">
        <ele>243</ele>
        <time>2019-10-30T09:25:05Z</time>
      </trkpt>
      <trkpt lat="47.08582" lon="5.55609">
        <ele>242</ele>
        <time>2019-10-30T09:25:09Z</time>
      </trkpt>
      <trkpt lat="47.08578" lon="5.55615">
        <ele>242</ele>
        <time>2019-10-30T09:25:14Z</time>
      </trkpt>
      <trkpt lat="47.08574" lon="5.55619">
        <ele>242</ele>
        <time>2019-10-30T09:25:18Z</time>
      </trkpt>
      <trkpt lat="47.08569" lon="5.55621">
        <ele>241</ele>
        <time>2019-10-30T09:25:22Z</time>
      </trkpt>
      <trkpt lat="47.08563" lon="5.55624">
        <ele>241</ele>
        <time>2019-10-30T09:25:26Z</time>
      </trkpt>
      <trkpt lat="47.08559" lon="5.55629">
        <ele>241</ele>
        <time>2019-10-30T09:25:30Z</time>
      </trkpt>
      <trkpt lat="47.08554" lon="5.55632">
        <ele>241</ele>
        <time>2019-10-30T09:25:34Z</time>
      </trkpt>
      <trkpt lat="47.08549" lon="5.55635">
        <ele>240</ele>
        <time>2019-10-30T09:25:39Z</time>
      </trkpt>
      <trkpt lat="47.08544" lon="5.5564">
        <ele>241</ele>
        <time>2019-10-30T09:25:45Z</time>
      </trkpt>
      <trkpt lat="47.08539" lon="5.55642">
        <ele>242</ele>
        <time>2019-10-30T09:25:49Z</time>
      </trkpt>
      <trkpt lat="47.08534" lon="5.55642">
        <ele>242</ele>
        <time>2019-10-30T09:25:53Z</time>
      </trkpt>
      <trkpt lat="47.08529" lon="5.55643">
        <ele>243</ele>
        <time>2019-10-30T09:25:57Z</time>
      </trkpt>
      <trkpt lat="47.08508" lon="5.5565">
        <ele>243</ele>
        <time>2019-10-30T09:26:13Z</time>
      </trkpt>
      <trkpt lat="47.08502" lon="5.55652">
        <ele>242</ele>
        <time>2019-10-30T09:26:18Z</time>
      </trkpt>
      <trkpt lat="47.08498" lon="5.55655">
        <ele>243</ele>
        <time>2019-10-30T09:26:22Z</time>
      </trkpt>
      <trkpt lat="47.08474" lon="5.55667">
        <ele>241</ele>
        <time>2019-10-30T09:26:43Z</time>
      </trkpt>
      <trkpt lat="47.08464" lon="5.55677">
        <ele>241</ele>
        <time>2019-10-30T09:26:50Z</time>
      </trkpt>
      <trkpt lat="47.0844" lon="5.557">
        <ele>241</ele>
        <time>2019-10-30T09:27:13Z</time>
      </trkpt>
      <trkpt lat="47.08431" lon="5.55705">
        <ele>241</ele>
        <time>2019-10-30T09:27:21Z</time>
      </trkpt>
      <trkpt lat="47.08421" lon="5.55711">
        <ele>241</ele>
        <time>2019-10-30T09:27:29Z</time>
      </trkpt>
      <trkpt lat="47.08412" lon="5.55715">
        <ele>241</ele>
        <time>2019-10-30T09:27:35Z</time>
      </trkpt>
      <trkpt lat="47.08404" lon="5.55724">
        <ele>241</ele>
        <time>2019-10-30T09:27:45Z</time>
      </trkpt>
      <trkpt lat="47.08394" lon="5.55725">
        <ele>239</ele>
        <time>2019-10-30T09:27:53Z</time>
      </trkpt>
      <trkpt lat="47.08376" lon="5.5573">
        <ele>240</ele>
        <time>2019-10-30T09:28:07Z</time>
      </trkpt>
      <trkpt lat="47.0835" lon="5.55748">
        <ele>243</ele>
        <time>2019-10-30T09:28:29Z</time>
      </trkpt>
      <trkpt lat="47.08342" lon="5.55755">
        <ele>243</ele>
        <time>2019-10-30T09:28:37Z</time>
      </trkpt>
      <trkpt lat="47.08334" lon="5.55761">
        <ele>243</ele>
        <time>2019-10-30T09:28:46Z</time>
      </trkpt>
      <trkpt lat="47.08307" lon="5.55775">
        <ele>242</ele>
        <time>2019-10-30T09:29:10Z</time>
      </trkpt>
      <trkpt lat="47.08294" lon="5.55787">
        <ele>241</ele>
        <time>2019-10-30T09:29:23Z</time>
      </trkpt>
      <trkpt lat="47.08289" lon="5.5579">
        <ele>240</ele>
        <time>2019-10-30T09:29:27Z</time>
      </trkpt>
      <trkpt lat="47.08284" lon="5.55793">
        <ele>241</ele>
        <time>2019-10-30T09:29:31Z</time>
      </trkpt>
      <trkpt lat="47.08279" lon="5.55796">
        <ele>240</ele>
        <time>2019-10-30T09:29:35Z</time>
      </trkpt>
      <trkpt lat="47.08273" lon="5.55798">
        <ele>240</ele>
        <time>2019-10-30T09:29:39Z</time>
      </trkpt>
      <trkpt lat="47.08269" lon="5.55801">
        <ele>239</ele>
        <time>2019-10-30T09:29:43Z</time>
      </trkpt>
      <trkpt lat="47.08264" lon="5.55803">
        <ele>239</ele>
        <time>2019-10-30T09:29:47Z</time>
      </trkpt>
      <trkpt lat="47.08258" lon="5.55806">
        <ele>239</ele>
        <time>2019-10-30T09:29:51Z</time>
      </trkpt>
      <trkpt lat="47.08254" lon="5.55811">
        <ele>238</ele>
        <time>2019-10-30T09:29:55Z</time>
      </trkpt>
      <trkpt lat="47.08249" lon="5.55815">
        <ele>238</ele>
        <time>2019-10-30T09:29:59Z</time>
      </trkpt>
      <trkpt lat="47.08244" lon="5.55817">
        <ele>238</ele>
        <time>2019-10-30T09:30:03Z</time>
      </trkpt>
      <trkpt lat="47.08234" lon="5.55823">
        <ele>237</ele>
        <time>2019-10-30T09:30:10Z</time>
      </trkpt>
      <trkpt lat="47.08229" lon="5.55824">
        <ele>236</ele>
        <time>2019-10-30T09:30:15Z</time>
      </trkpt>
      <trkpt lat="47.08224" lon="5.55825">
        <ele>236</ele>
        <time>2019-10-30T09:30:18Z</time>
      </trkpt>
      <trkpt lat="47.08218" lon="5.55827">
        <ele>236</ele>
        <time>2019-10-30T09:30:23Z</time>
      </trkpt>
      <trkpt lat="47.08214" lon="5.55828">
        <ele>234</ele>
        <time>2019-10-30T09:30:27Z</time>
      </trkpt>
      <trkpt lat="47.08205" lon="5.55836">
        <ele>233</ele>
        <time>2019-10-30T09:30:37Z</time>
      </trkpt>
      <trkpt lat="47.08203" lon="5.55842">
        <ele>233</ele>
        <time>2019-10-30T09:30:41Z</time>
      </trkpt>
      <trkpt lat="47.08202" lon="5.55849">
        <ele>233</ele>
        <time>2019-10-30T09:30:44Z</time>
      </trkpt>
      <trkpt lat="47.08201" lon="5.55856">
        <ele>232</ele>
        <time>2019-10-30T09:30:47Z</time>
      </trkpt>
      <trkpt lat="47.08199" lon="5.55864">
        <ele>232</ele>
        <time>2019-10-30T09:30:52Z</time>
      </trkpt>
      <trkpt lat="47.08198" lon="5.5587">
        <ele>232</ele>
        <time>2019-10-30T09:30:57Z</time>
      </trkpt>
      <trkpt lat="47.08197" lon="5.55881">
        <ele>231</ele>
        <time>2019-10-30T09:31:02Z</time>
      </trkpt>
      <trkpt lat="47.08198" lon="5.55887">
        <ele>230</ele>
        <time>2019-10-30T09:31:06Z</time>
      </trkpt>
      <trkpt lat="47.08198" lon="5.55895">
        <ele>230</ele>
        <time>2019-10-30T09:31:11Z</time>
      </trkpt>
      <trkpt lat="47.08197" lon="5.55909">
        <ele>229</ele>
        <time>2019-10-30T09:31:22Z</time>
      </trkpt>
      <trkpt lat="47.08195" lon="5.55917">
        <ele>229</ele>
        <time>2019-10-30T09:31:28Z</time>
      </trkpt>
      <trkpt lat="47.08193" lon="5.55924">
        <ele>229</ele>
        <time>2019-10-30T09:31:33Z</time>
      </trkpt>
      <trkpt lat="47.08192" lon="5.55939">
        <ele>229</ele>
        <time>2019-10-30T09:31:42Z</time>
      </trkpt>
      <trkpt lat="47.08191" lon="5.55946">
        <ele>228</ele>
        <time>2019-10-30T09:31:46Z</time>
      </trkpt>
      <trkpt lat="47.0819" lon="5.55953">
        <ele>228</ele>
        <time>2019-10-30T09:31:51Z</time>
      </trkpt>
      <trkpt lat="47.08191" lon="5.55969">
        <ele>227</ele>
        <time>2019-10-30T09:31:59Z</time>
      </trkpt>
      <trkpt lat="47.0819" lon="5.55981">
        <ele>226</ele>
        <time>2019-10-30T09:32:10Z</time>
      </trkpt>
      <trkpt lat="47.08185" lon="5.55997">
        <ele>224</ele>
        <time>2019-10-30T09:32:24Z</time>
      </trkpt>
      <trkpt lat="47.0817" lon="5.56017">
        <ele>223</ele>
        <time>2019-10-30T09:32:39Z</time>
      </trkpt>
      <trkpt lat="47.08125" lon="5.56012">
        <ele>223</ele>
        <time>2019-10-30T09:33:05Z</time>
      </trkpt>
      <trkpt lat="47.08127" lon="5.56009">
        <ele>222</ele>
        <time>2019-10-30T09:33:07Z</time>
      </trkpt>
      <trkpt lat="47.08132" lon="5.56004">
        <ele>219</ele>
        <time>2019-10-30T09:33:12Z</time>
      </trkpt>
      <trkpt lat="47.08129" lon="5.55995">
        <ele>223</ele>
        <time>2019-10-30T09:33:20Z</time>
      </trkpt>
      <trkpt lat="47.08129" lon="5.55988">
        <ele>225</ele>
        <time>2019-10-30T09:33:25Z</time>
      </trkpt>
      <trkpt lat="47.08133" lon="5.55959">
        <ele>220</ele>
        <time>2019-10-30T09:33:41Z</time>
      </trkpt>
      <trkpt lat="47.08135" lon="5.55953">
        <ele>219</ele>
        <time>2019-10-30T09:33:46Z</time>
      </trkpt>
      <trkpt lat="47.08136" lon="5.55943">
        <ele>219</ele>
        <time>2019-10-30T09:33:56Z</time>
      </trkpt>
      <trkpt lat="47.08137" lon="5.55936">
        <ele>216</ele>
        <time>2019-10-30T09:34:40Z</time>
      </trkpt>
      <trkpt lat="47.0813" lon="5.55924">
        <ele>215</ele>
        <time>2019-10-30T09:34:56Z</time>
      </trkpt>
      <trkpt lat="47.08122" lon="5.55913">
        <ele>214</ele>
        <time>2019-10-30T09:35:15Z</time>
      </trkpt>
      <trkpt lat="47.08117" lon="5.55907">
        <ele>213</ele>
        <time>2019-10-30T09:35:23Z</time>
      </trkpt>
      <trkpt lat="47.08113" lon="5.55903">
        <ele>213</ele>
        <time>2019-10-30T09:35:35Z</time>
      </trkpt>
      <trkpt lat="47.08109" lon="5.55907">
        <ele>213</ele>
        <time>2019-10-30T09:35:42Z</time>
      </trkpt>
      <trkpt lat="47.08103" lon="5.55909">
        <ele>214</ele>
        <time>2019-10-30T09:35:48Z</time>
      </trkpt>
      <trkpt lat="47.08098" lon="5.55911">
        <ele>214</ele>
        <time>2019-10-30T09:35:53Z</time>
      </trkpt>
      <trkpt lat="47.08093" lon="5.55913">
        <ele>213</ele>
        <time>2019-10-30T09:35:58Z</time>
      </trkpt>
      <trkpt lat="47.08088" lon="5.55913">
        <ele>214</ele>
        <time>2019-10-30T09:36:02Z</time>
      </trkpt>
      <trkpt lat="47.08083" lon="5.55914">
        <ele>214</ele>
        <time>2019-10-30T09:36:07Z</time>
      </trkpt>
      <trkpt lat="47.08078" lon="5.55916">
        <ele>213</ele>
        <time>2019-10-30T09:36:12Z</time>
      </trkpt>
      <trkpt lat="47.08063" lon="5.55924">
        <ele>214</ele>
        <time>2019-10-30T09:36:25Z</time>
      </trkpt>
      <trkpt lat="47.08058" lon="5.55926">
        <ele>214</ele>
        <time>2019-10-30T09:36:29Z</time>
      </trkpt>
      <trkpt lat="47.08053" lon="5.5593">
        <ele>214</ele>
        <time>2019-10-30T09:36:34Z</time>
      </trkpt>
      <trkpt lat="47.08049" lon="5.55935">
        <ele>215</ele>
        <time>2019-10-30T09:36:39Z</time>
      </trkpt>
      <trkpt lat="47.08038" lon="5.5594">
        <ele>215</ele>
        <time>2019-10-30T09:36:52Z</time>
      </trkpt>
      <trkpt lat="47.08034" lon="5.55943">
        <ele>215</ele>
        <time>2019-10-30T09:36:56Z</time>
      </trkpt>
      <trkpt lat="47.08027" lon="5.55954">
        <ele>216</ele>
        <time>2019-10-30T09:37:05Z</time>
      </trkpt>
      <trkpt lat="47.08022" lon="5.55955">
        <ele>217</ele>
        <time>2019-10-30T09:37:10Z</time>
      </trkpt>
      <trkpt lat="47.08018" lon="5.55955">
        <ele>217</ele>
        <time>2019-10-30T09:37:13Z</time>
      </trkpt>
      <trkpt lat="47.08013" lon="5.55953">
        <ele>219</ele>
        <time>2019-10-30T09:37:32Z</time>
      </trkpt>
      <trkpt lat="47.08003" lon="5.55962">
        <ele>223</ele>
        <time>2019-10-30T09:37:50Z</time>
      </trkpt>
      <trkpt lat="47.07995" lon="5.55965">
        <ele>226</ele>
        <time>2019-10-30T09:38:02Z</time>
      </trkpt>
      <trkpt lat="47.07978" lon="5.55979">
        <ele>229</ele>
        <time>2019-10-30T09:38:24Z</time>
      </trkpt>
      <trkpt lat="47.07973" lon="5.55981">
        <ele>230</ele>
        <time>2019-10-30T09:38:29Z</time>
      </trkpt>
      <trkpt lat="47.07949" lon="5.55994">
        <ele>231</ele>
        <time>2019-10-30T09:38:55Z</time>
      </trkpt>
      <trkpt lat="47.07943" lon="5.55996">
        <ele>231</ele>
        <time>2019-10-30T09:39:04Z</time>
      </trkpt>
      <trkpt lat="47.07937" lon="5.56002">
        <ele>232</ele>
        <time>2019-10-30T09:39:15Z</time>
      </trkpt>
      <trkpt lat="47.07932" lon="5.56006">
        <ele>232</ele>
        <time>2019-10-30T09:39:20Z</time>
      </trkpt>
      <trkpt lat="47.07918" lon="5.56013">
        <ele>233</ele>
        <time>2019-10-30T09:39:32Z</time>
      </trkpt>
      <trkpt lat="47.07914" lon="5.56017">
        <ele>233</ele>
        <time>2019-10-30T09:39:37Z</time>
      </trkpt>
      <trkpt lat="47.07891" lon="5.56031">
        <ele>235</ele>
        <time>2019-10-30T09:40:01Z</time>
      </trkpt>
      <trkpt lat="47.07884" lon="5.56033">
        <ele>235</ele>
        <time>2019-10-30T09:40:11Z</time>
      </trkpt>
      <trkpt lat="47.07877" lon="5.56037">
        <ele>235</ele>
        <time>2019-10-30T09:40:26Z</time>
      </trkpt>
      <trkpt lat="47.07872" lon="5.56039">
        <ele>235</ele>
        <time>2019-10-30T09:40:31Z</time>
      </trkpt>
      <trkpt lat="47.07867" lon="5.56042">
        <ele>236</ele>
        <time>2019-10-30T09:40:36Z</time>
      </trkpt>
      <trkpt lat="47.07863" lon="5.56045">
        <ele>235</ele>
        <time>2019-10-30T09:40:40Z</time>
      </trkpt>
      <trkpt lat="47.07855" lon="5.56045">
        <ele>236</ele>
        <time>2019-10-30T09:41:06Z</time>
      </trkpt>
      <trkpt lat="47.0785" lon="5.56047">
        <ele>235</ele>
        <time>2019-10-30T09:41:11Z</time>
      </trkpt>
      <trkpt lat="47.07842" lon="5.56051">
        <ele>235</ele>
        <time>2019-10-30T09:41:19Z</time>
      </trkpt>
      <trkpt lat="47.07833" lon="5.56058">
        <ele>234</ele>
        <time>2019-10-30T09:41:27Z</time>
      </trkpt>
      <trkpt lat="47.07822" lon="5.56065">
        <ele>235</ele>
        <time>2019-10-30T09:41:35Z</time>
      </trkpt>
      <trkpt lat="47.07812" lon="5.56072">
        <ele>236</ele>
        <time>2019-10-30T09:41:43Z</time>
      </trkpt>
      <trkpt lat="47.07774" lon="5.56095">
        <ele>237</ele>
        <time>2019-10-30T09:42:17Z</time>
      </trkpt>
      <trkpt lat="47.07769" lon="5.56098">
        <ele>237</ele>
        <time>2019-10-30T09:42:21Z</time>
      </trkpt>
      <trkpt lat="47.0776" lon="5.56102">
        <ele>237</ele>
        <time>2019-10-30T09:42:30Z</time>
      </trkpt>
      <trkpt lat="47.07746" lon="5.56111">
        <ele>238</ele>
        <time>2019-10-30T09:42:43Z</time>
      </trkpt>
      <trkpt lat="47.07741" lon="5.56116">
        <ele>237</ele>
        <time>2019-10-30T09:42:47Z</time>
      </trkpt>
      <trkpt lat="47.07728" lon="5.56127">
        <ele>238</ele>
        <time>2019-10-30T09:42:59Z</time>
      </trkpt>
      <trkpt lat="47.07723" lon="5.56129">
        <ele>238</ele>
        <time>2019-10-30T09:43:03Z</time>
      </trkpt>
      <trkpt lat="47.07718" lon="5.56132">
        <ele>238</ele>
        <time>2019-10-30T09:43:07Z</time>
      </trkpt>
      <trkpt lat="47.07714" lon="5.56135">
        <ele>238</ele>
        <time>2019-10-30T09:43:11Z</time>
      </trkpt>
      <trkpt lat="47.07709" lon="5.56137">
        <ele>239</ele>
        <time>2019-10-30T09:43:15Z</time>
      </trkpt>
      <trkpt lat="47.07706" lon="5.56131">
        <ele>238</ele>
        <time>2019-10-30T09:43:24Z</time>
      </trkpt>
      <trkpt lat="47.07706" lon="5.56123">
        <ele>238</ele>
        <time>2019-10-30T09:43:29Z</time>
      </trkpt>
      <trkpt lat="47.07707" lon="5.56116">
        <ele>237</ele>
        <time>2019-10-30T09:43:34Z</time>
      </trkpt>
      <trkpt lat="47.07706" lon="5.56109">
        <ele>237</ele>
        <time>2019-10-30T09:43:39Z</time>
      </trkpt>
      <trkpt lat="47.07703" lon="5.56103">
        <ele>236</ele>
        <time>2019-10-30T09:43:43Z</time>
      </trkpt>
      <trkpt lat="47.07703" lon="5.56096">
        <ele>235</ele>
        <time>2019-10-30T09:43:48Z</time>
      </trkpt>
      <trkpt lat="47.07701" lon="5.56089">
        <ele>235</ele>
        <time>2019-10-30T09:43:53Z</time>
      </trkpt>
      <trkpt lat="47.07699" lon="5.56078">
        <ele>232</ele>
        <time>2019-10-30T09:44:00Z</time>
      </trkpt>
      <trkpt lat="47.07698" lon="5.56065">
        <ele>232</ele>
        <time>2019-10-30T09:44:08Z</time>
      </trkpt>
      <trkpt lat="47.07696" lon="5.56058">
        <ele>233</ele>
        <time>2019-10-30T09:44:12Z</time>
      </trkpt>
      <trkpt lat="47.07686" lon="5.56041">
        <ele>233</ele>
        <time>2019-10-30T09:44:24Z</time>
      </trkpt>
      <trkpt lat="47.07683" lon="5.56007">
        <ele>233</ele>
        <time>2019-10-30T09:44:51Z</time>
      </trkpt>
      <trkpt lat="47.07682" lon="5.55991">
        <ele>234</ele>
        <time>2019-10-30T09:45:00Z</time>
      </trkpt>
      <trkpt lat="47.07679" lon="5.55977">
        <ele>234</ele>
        <time>2019-10-30T09:45:08Z</time>
      </trkpt>
      <trkpt lat="47.07663" lon="5.55925">
        <ele>230</ele>
        <time>2019-10-30T09:45:42Z</time>
      </trkpt>
      <trkpt lat="47.07659" lon="5.55902">
        <ele>230</ele>
        <time>2019-10-30T09:45:58Z</time>
      </trkpt>
      <trkpt lat="47.07658" lon="5.55888">
        <ele>231</ele>
        <time>2019-10-30T09:46:08Z</time>
      </trkpt>
      <trkpt lat="47.07652" lon="5.55863">
        <ele>232</ele>
        <time>2019-10-30T09:46:22Z</time>
      </trkpt>
      <trkpt lat="47.07648" lon="5.5585">
        <ele>231</ele>
        <time>2019-10-30T09:46:31Z</time>
      </trkpt>
      <trkpt lat="47.07643" lon="5.55838">
        <ele>231</ele>
        <time>2019-10-30T09:46:39Z</time>
      </trkpt>
      <trkpt lat="47.07641" lon="5.55826">
        <ele>231</ele>
        <time>2019-10-30T09:46:46Z</time>
      </trkpt>
      <trkpt lat="47.0764" lon="5.5582">
        <ele>231</ele>
        <time>2019-10-30T09:46:50Z</time>
      </trkpt>
      <trkpt lat="47.07637" lon="5.55805">
        <ele>231</ele>
        <time>2019-10-30T09:46:59Z</time>
      </trkpt>
      <trkpt lat="47.07634" lon="5.55797">
        <ele>231</ele>
        <time>2019-10-30T09:47:04Z</time>
      </trkpt>
      <trkpt lat="47.07632" lon="5.55791">
        <ele>230</ele>
        <time>2019-10-30T09:47:08Z</time>
      </trkpt>
      <trkpt lat="47.07631" lon="5.55781">
        <ele>231</ele>
        <time>2019-10-30T09:47:15Z</time>
      </trkpt>
      <trkpt lat="47.07627" lon="5.55767">
        <ele>232</ele>
        <time>2019-10-30T09:47:25Z</time>
      </trkpt>
      <trkpt lat="47.07621" lon="5.55754">
        <ele>233</ele>
        <time>2019-10-30T09:47:34Z</time>
      </trkpt>
      <trkpt lat="47.07619" lon="5.55747">
        <ele>232</ele>
        <time>2019-10-30T09:47:38Z</time>
      </trkpt>
      <trkpt lat="47.07617" lon="5.55741">
        <ele>232</ele>
        <time>2019-10-30T09:47:42Z</time>
      </trkpt>
      <trkpt lat="47.07614" lon="5.55736">
        <ele>233</ele>
        <time>2019-10-30T09:47:45Z</time>
      </trkpt>
      <trkpt lat="47.07613" lon="5.55721">
        <ele>234</ele>
        <time>2019-10-30T09:47:54Z</time>
      </trkpt>
      <trkpt lat="47.07612" lon="5.55714">
        <ele>235</ele>
        <time>2019-10-30T09:47:59Z</time>
      </trkpt>
      <trkpt lat="47.07608" lon="5.55702">
        <ele>236</ele>
        <time>2019-10-30T09:48:09Z</time>
      </trkpt>
      <trkpt lat="47.07607" lon="5.55695">
        <ele>236</ele>
        <time>2019-10-30T09:48:14Z</time>
      </trkpt>
      <trkpt lat="47.07604" lon="5.55686">
        <ele>236</ele>
        <time>2019-10-30T09:48:20Z</time>
      </trkpt>
      <trkpt lat="47.07602" lon="5.55675">
        <ele>237</ele>
        <time>2019-10-30T09:48:28Z</time>
      </trkpt>
      <trkpt lat="47.076" lon="5.55668">
        <ele>237</ele>
        <time>2019-10-30T09:48:33Z</time>
      </trkpt>
      <trkpt lat="47.07598" lon="5.55661">
        <ele>237</ele>
        <time>2019-10-30T09:48:38Z</time>
      </trkpt>
      <trkpt lat="47.07597" lon="5.55654">
        <ele>238</ele>
        <time>2019-10-30T09:48:43Z</time>
      </trkpt>
      <trkpt lat="47.07596" lon="5.55646">
        <ele>238</ele>
        <time>2019-10-30T09:48:48Z</time>
      </trkpt>
      <trkpt lat="47.07594" lon="5.55637">
        <ele>239</ele>
        <time>2019-10-30T09:48:55Z</time>
      </trkpt>
      <trkpt lat="47.07585" lon="5.55585">
        <ele>240</ele>
        <time>2019-10-30T09:49:30Z</time>
      </trkpt>
      <trkpt lat="47.07583" lon="5.55578">
        <ele>240</ele>
        <time>2019-10-30T09:49:34Z</time>
      </trkpt>
      <trkpt lat="47.07581" lon="5.5557">
        <ele>240</ele>
        <time>2019-10-30T09:49:41Z</time>
      </trkpt>
      <trkpt lat="47.07579" lon="5.55564">
        <ele>240</ele>
        <time>2019-10-30T09:49:44Z</time>
      </trkpt>
      <trkpt lat="47.07578" lon="5.5555">
        <ele>240</ele>
        <time>2019-10-30T09:49:53Z</time>
      </trkpt>
      <trkpt lat="47.07571" lon="5.5553">
        <ele>238</ele>
        <time>2019-10-30T09:50:07Z</time>
      </trkpt>
      <trkpt lat="47.07569" lon="5.55521">
        <ele>238</ele>
        <time>2019-10-30T09:50:14Z</time>
      </trkpt>
      <trkpt lat="47.07567" lon="5.55514">
        <ele>238</ele>
        <time>2019-10-30T09:50:18Z</time>
      </trkpt>
      <trkpt lat="47.07566" lon="5.55508">
        <ele>239</ele>
        <time>2019-10-30T09:50:22Z</time>
      </trkpt>
      <trkpt lat="47.07562" lon="5.55498">
        <ele>238</ele>
        <time>2019-10-30T09:50:31Z</time>
      </trkpt>
      <trkpt lat="47.07557" lon="5.55489">
        <ele>237</ele>
        <time>2019-10-30T09:50:50Z</time>
      </trkpt>
      <trkpt lat="47.07557" lon="5.5548">
        <ele>236</ele>
        <time>2019-10-30T09:50:54Z</time>
      </trkpt>
      <trkpt lat="47.07558" lon="5.55452">
        <ele>240</ele>
        <time>2019-10-30T09:51:16Z</time>
      </trkpt>
      <trkpt lat="47.07553" lon="5.55441">
        <ele>240</ele>
        <time>2019-10-30T09:51:24Z</time>
      </trkpt>
      <trkpt lat="47.07547" lon="5.55411">
        <ele>242</ele>
        <time>2019-10-30T09:51:49Z</time>
      </trkpt>
      <trkpt lat="47.07537" lon="5.55375">
        <ele>243</ele>
        <time>2019-10-30T09:52:17Z</time>
      </trkpt>
      <trkpt lat="47.07537" lon="5.55361">
        <ele>243</ele>
        <time>2019-10-30T09:52:25Z</time>
      </trkpt>
      <trkpt lat="47.0753" lon="5.55351">
        <ele>243</ele>
        <time>2019-10-30T09:52:32Z</time>
      </trkpt>
      <trkpt lat="47.07526" lon="5.55339">
        <ele>243</ele>
        <time>2019-10-30T09:52:39Z</time>
      </trkpt>
      <trkpt lat="47.07522" lon="5.55327">
        <ele>243</ele>
        <time>2019-10-30T09:52:46Z</time>
      </trkpt>
      <trkpt lat="47.07513" lon="5.55272">
        <ele>246</ele>
        <time>2019-10-30T09:53:17Z</time>
      </trkpt>
      <trkpt lat="47.07508" lon="5.5526">
        <ele>246</ele>
        <time>2019-10-30T09:53:27Z</time>
      </trkpt>
      <trkpt lat="47.07502" lon="5.55231">
        <ele>249</ele>
        <time>2019-10-30T09:53:50Z</time>
      </trkpt>
      <trkpt lat="47.07501" lon="5.55218">
        <ele>249</ele>
        <time>2019-10-30T09:53:58Z</time>
      </trkpt>
      <trkpt lat="47.07497" lon="5.55204">
        <ele>249</ele>
        <time>2019-10-30T09:54:05Z</time>
      </trkpt>
      <trkpt lat="47.07491" lon="5.55193">
        <ele>248</ele>
        <time>2019-10-30T09:54:13Z</time>
      </trkpt>
      <trkpt lat="47.07487" lon="5.55181">
        <ele>248</ele>
        <time>2019-10-30T09:54:24Z</time>
      </trkpt>
      <trkpt lat="47.07486" lon="5.55168">
        <ele>249</ele>
        <time>2019-10-30T09:54:34Z</time>
      </trkpt>
      <trkpt lat="47.07482" lon="5.55152">
        <ele>249</ele>
        <time>2019-10-30T09:54:43Z</time>
      </trkpt>
      <trkpt lat="47.07479" lon="5.5514">
        <ele>249</ele>
        <time>2019-10-30T09:54:49Z</time>
      </trkpt>
      <trkpt lat="47.07473" lon="5.55104">
        <ele>253</ele>
        <time>2019-10-30T09:55:17Z</time>
      </trkpt>
      <trkpt lat="47.0747" lon="5.55092">
        <ele>253</ele>
        <time>2019-10-30T09:55:23Z</time>
      </trkpt>
      <trkpt lat="47.07469" lon="5.55078">
        <ele>254</ele>
        <time>2019-10-30T09:55:31Z</time>
      </trkpt>
      <trkpt lat="47.07467" lon="5.55063">
        <ele>253</ele>
        <time>2019-10-30T09:55:38Z</time>
      </trkpt>
      <trkpt lat="47.07448" lon="5.5502">
        <ele>253</ele>
        <time>2019-10-30T09:56:08Z</time>
      </trkpt>
      <trkpt lat="47.07443" lon="5.55008">
        <ele>253</ele>
        <time>2019-10-30T09:56:16Z</time>
      </trkpt>
      <trkpt lat="47.07439" lon="5.54995">
        <ele>253</ele>
        <time>2019-10-30T09:56:25Z</time>
      </trkpt>
      <trkpt lat="47.07436" lon="5.54981">
        <ele>253</ele>
        <time>2019-10-30T09:56:32Z</time>
      </trkpt>
      <trkpt lat="47.07435" lon="5.54968">
        <ele>253</ele>
        <time>2019-10-30T09:56:39Z</time>
      </trkpt>
      <trkpt lat="47.0743" lon="5.54958">
        <ele>253</ele>
        <time>2019-10-30T09:56:47Z</time>
      </trkpt>
      <trkpt lat="47.07428" lon="5.54952">
        <ele>253</ele>
        <time>2019-10-30T09:56:51Z</time>
      </trkpt>
      <trkpt lat="47.07424" lon="5.54911">
        <ele>249</ele>
        <time>2019-10-30T09:57:51Z</time>
      </trkpt>
      <trkpt lat="47.07414" lon="5.54914">
        <ele>242</ele>
        <time>2019-10-30T10:00:21Z</time>
      </trkpt>
      <trkpt lat="47.07404" lon="5.5492">
        <ele>246</ele>
        <time>2019-10-30T10:00:44Z</time>
      </trkpt>
      <trkpt lat="47.07399" lon="5.54922">
        <ele>246</ele>
        <time>2019-10-30T10:00:48Z</time>
      </trkpt>
      <trkpt lat="47.07394" lon="5.54925">
        <ele>246</ele>
        <time>2019-10-30T10:00:52Z</time>
      </trkpt>
      <trkpt lat="47.07389" lon="5.5493">
        <ele>246</ele>
        <time>2019-10-30T10:00:56Z</time>
      </trkpt>
      <trkpt lat="47.07381" lon="5.54935">
        <ele>246</ele>
        <time>2019-10-30T10:01:04Z</time>
      </trkpt>
      <trkpt lat="47.07376" lon="5.54939">
        <ele>245</ele>
        <time>2019-10-30T10:01:08Z</time>
      </trkpt>
      <trkpt lat="47.07367" lon="5.54945">
        <ele>246</ele>
        <time>2019-10-30T10:01:15Z</time>
      </trkpt>
      <trkpt lat="47.07362" lon="5.54948">
        <ele>246</ele>
        <time>2019-10-30T10:01:19Z</time>
      </trkpt>
      <trkpt lat="47.07348" lon="5.54958">
        <ele>246</ele>
        <time>2019-10-30T10:01:31Z</time>
      </trkpt>
      <trkpt lat="47.07339" lon="5.54963">
        <ele>247</ele>
        <time>2019-10-30T10:01:38Z</time>
      </trkpt>
      <trkpt lat="47.07325" lon="5.54973">
        <ele>247</ele>
        <time>2019-10-30T10:01:50Z</time>
      </trkpt>
      <trkpt lat="47.0732" lon="5.54976">
        <ele>247</ele>
        <time>2019-10-30T10:01:54Z</time>
      </trkpt>
      <trkpt lat="47.07308" lon="5.54981">
        <ele>249</ele>
        <time>2019-10-30T10:02:02Z</time>
      </trkpt>
      <trkpt lat="47.07304" lon="5.54984">
        <ele>248</ele>
        <time>2019-10-30T10:02:06Z</time>
      </trkpt>
      <trkpt lat="47.07299" lon="5.54988">
        <ele>249</ele>
        <time>2019-10-30T10:02:10Z</time>
      </trkpt>
      <trkpt lat="47.07295" lon="5.54991">
        <ele>248</ele>
        <time>2019-10-30T10:02:15Z</time>
      </trkpt>
      <trkpt lat="47.0729" lon="5.54993">
        <ele>247</ele>
        <time>2019-10-30T10:02:23Z</time>
      </trkpt>
      <trkpt lat="47.0728" lon="5.54997">
        <ele>248</ele>
        <time>2019-10-30T10:02:30Z</time>
      </trkpt>
      <trkpt lat="47.07275" lon="5.54999">
        <ele>249</ele>
        <time>2019-10-30T10:02:34Z</time>
      </trkpt>
      <trkpt lat="47.0727" lon="5.55001">
        <ele>249</ele>
        <time>2019-10-30T10:02:39Z</time>
      </trkpt>
      <trkpt lat="47.07265" lon="5.55003">
        <ele>249</ele>
        <time>2019-10-30T10:02:43Z</time>
      </trkpt>
      <trkpt lat="47.0726" lon="5.55005">
        <ele>250</ele>
        <time>2019-10-30T10:02:47Z</time>
      </trkpt>
      <trkpt lat="47.07255" lon="5.55009">
        <ele>250</ele>
        <time>2019-10-30T10:02:51Z</time>
      </trkpt>
      <trkpt lat="47.0725" lon="5.55009">
        <ele>250</ele>
        <time>2019-10-30T10:02:55Z</time>
      </trkpt>
      <trkpt lat="47.07236" lon="5.55022">
        <ele>248</ele>
        <time>2019-10-30T10:03:08Z</time>
      </trkpt>
      <trkpt lat="47.07221" lon="5.55033">
        <ele>248</ele>
        <time>2019-10-30T10:03:20Z</time>
      </trkpt>
      <trkpt lat="47.07215" lon="5.55034">
        <ele>248</ele>
        <time>2019-10-30T10:03:25Z</time>
      </trkpt>
      <trkpt lat="47.072" lon="5.55041">
        <ele>249</ele>
        <time>2019-10-30T10:03:48Z</time>
      </trkpt>
      <trkpt lat="47.07197" lon="5.55044">
        <ele>249</ele>
        <time>2019-10-30T10:03:51Z</time>
      </trkpt>
      <trkpt lat="47.07191" lon="5.55048">
        <ele>248</ele>
        <time>2019-10-30T10:03:55Z</time>
      </trkpt>
      <trkpt lat="47.07186" lon="5.55051">
        <ele>248</ele>
        <time>2019-10-30T10:03:59Z</time>
      </trkpt>
      <trkpt lat="47.07182" lon="5.55054">
        <ele>248</ele>
        <time>2019-10-30T10:04:03Z</time>
      </trkpt>
      <trkpt lat="47.07172" lon="5.55059">
        <ele>248</ele>
        <time>2019-10-30T10:04:11Z</time>
      </trkpt>
      <trkpt lat="47.07158" lon="5.55068">
        <ele>246</ele>
        <time>2019-10-30T10:04:23Z</time>
      </trkpt>
      <trkpt lat="47.07153" lon="5.55071">
        <ele>246</ele>
        <time>2019-10-30T10:04:27Z</time>
      </trkpt>
      <trkpt lat="47.07144" lon="5.55078">
        <ele>244</ele>
        <time>2019-10-30T10:04:35Z</time>
      </trkpt>
      <trkpt lat="47.07139" lon="5.55082">
        <ele>244</ele>
        <time>2019-10-30T10:04:39Z</time>
      </trkpt>
      <trkpt lat="47.07124" lon="5.55091">
        <ele>245</ele>
        <time>2019-10-30T10:04:51Z</time>
      </trkpt>
      <trkpt lat="47.07119" lon="5.55094">
        <ele>245</ele>
        <time>2019-10-30T10:04:55Z</time>
      </trkpt>
      <trkpt lat="47.07114" lon="5.55097">
        <ele>244</ele>
        <time>2019-10-30T10:04:59Z</time>
      </trkpt>
      <trkpt lat="47.07109" lon="5.55101">
        <ele>244</ele>
        <time>2019-10-30T10:05:03Z</time>
      </trkpt>
      <trkpt lat="47.07104" lon="5.55104">
        <ele>244</ele>
        <time>2019-10-30T10:05:07Z</time>
      </trkpt>
      <trkpt lat="47.07094" lon="5.55111">
        <ele>244</ele>
        <time>2019-10-30T10:05:15Z</time>
      </trkpt>
      <trkpt lat="47.07089" lon="5.55115">
        <ele>244</ele>
        <time>2019-10-30T10:05:19Z</time>
      </trkpt>
      <trkpt lat="47.07084" lon="5.55117">
        <ele>244</ele>
        <time>2019-10-30T10:05:23Z</time>
      </trkpt>
      <trkpt lat="47.07079" lon="5.55111">
        <ele>244</ele>
        <time>2019-10-30T10:05:32Z</time>
      </trkpt>
      <trkpt lat="47.07078" lon="5.55103">
        <ele>245</ele>
        <time>2019-10-30T10:05:36Z</time>
      </trkpt>
      <trkpt lat="47.0708" lon="5.55085">
        <ele>244</ele>
        <time>2019-10-30T10:05:49Z</time>
      </trkpt>
      <trkpt lat="47.0708" lon="5.55078">
        <ele>245</ele>
        <time>2019-10-30T10:05:53Z</time>
      </trkpt>
      <trkpt lat="47.0708" lon="5.55045">
        <ele>245</ele>
        <time>2019-10-30T10:06:09Z</time>
      </trkpt>
      <trkpt lat="47.0708" lon="5.55039">
        <ele>246</ele>
        <time>2019-10-30T10:06:11Z</time>
      </trkpt>
      <trkpt lat="47.07079" lon="5.55031">
        <ele>245</ele>
        <time>2019-10-30T10:06:14Z</time>
      </trkpt>
      <trkpt lat="47.07078" lon="5.54983">
        <ele>245</ele>
        <time>2019-10-30T10:06:37Z</time>
      </trkpt>
      <trkpt lat="47.07077" lon="5.54975">
        <ele>244</ele>
        <time>2019-10-30T10:06:41Z</time>
      </trkpt>
      <trkpt lat="47.07076" lon="5.54967">
        <ele>244</ele>
        <time>2019-10-30T10:06:45Z</time>
      </trkpt>
      <trkpt lat="47.07074" lon="5.5496">
        <ele>244</ele>
        <time>2019-10-30T10:06:48Z</time>
      </trkpt>
      <trkpt lat="47.07073" lon="5.54953">
        <ele>244</ele>
        <time>2019-10-30T10:06:51Z</time>
      </trkpt>
      <trkpt lat="47.07072" lon="5.54946">
        <ele>243</ele>
        <time>2019-10-30T10:06:55Z</time>
      </trkpt>
      <trkpt lat="47.07069" lon="5.54931">
        <ele>243</ele>
        <time>2019-10-30T10:07:03Z</time>
      </trkpt>
      <trkpt lat="47.07068" lon="5.54924">
        <ele>243</ele>
        <time>2019-10-30T10:07:07Z</time>
      </trkpt>
      <trkpt lat="47.07067" lon="5.54913">
        <ele>242</ele>
        <time>2019-10-30T10:07:15Z</time>
      </trkpt>
      <trkpt lat="47.07066" lon="5.54905">
        <ele>242</ele>
        <time>2019-10-30T10:07:19Z</time>
      </trkpt>
      <trkpt lat="47.07064" lon="5.54899">
        <ele>242</ele>
        <time>2019-10-30T10:07:23Z</time>
      </trkpt>
      <trkpt lat="47.0706" lon="5.54885">
        <ele>242</ele>
        <time>2019-10-30T10:07:30Z</time>
      </trkpt>
      <trkpt lat="47.0706" lon="5.54878">
        <ele>242</ele>
        <time>2019-10-30T10:07:34Z</time>
      </trkpt>
      <trkpt lat="47.07059" lon="5.54868">
        <ele>242</ele>
        <time>2019-10-30T10:07:43Z</time>
      </trkpt>
      <trkpt lat="47.07058" lon="5.54861">
        <ele>242</ele>
        <time>2019-10-30T10:07:47Z</time>
      </trkpt>
      <trkpt lat="47.07057" lon="5.54849">
        <ele>243</ele>
        <time>2019-10-30T10:08:03Z</time>
      </trkpt>
      <trkpt lat="47.07055" lon="5.54842">
        <ele>242</ele>
        <time>2019-10-30T10:08:07Z</time>
      </trkpt>
      <trkpt lat="47.07053" lon="5.54834">
        <ele>242</ele>
        <time>2019-10-30T10:08:11Z</time>
      </trkpt>
      <trkpt lat="47.07051" lon="5.54813">
        <ele>241</ele>
        <time>2019-10-30T10:08:22Z</time>
      </trkpt>
      <trkpt lat="47.07051" lon="5.54806">
        <ele>241</ele>
        <time>2019-10-30T10:08:27Z</time>
      </trkpt>
      <trkpt lat="47.07051" lon="5.54798">
        <ele>241</ele>
        <time>2019-10-30T10:08:32Z</time>
      </trkpt>
      <trkpt lat="47.07048" lon="5.54793">
        <ele>241</ele>
        <time>2019-10-30T10:08:35Z</time>
      </trkpt>
      <trkpt lat="47.07045" lon="5.54786">
        <ele>242</ele>
        <time>2019-10-30T10:08:40Z</time>
      </trkpt>
      <trkpt lat="47.07045" lon="5.5478">
        <ele>242</ele>
        <time>2019-10-30T10:08:48Z</time>
      </trkpt>
      <trkpt lat="47.07044" lon="5.54772">
        <ele>243</ele>
        <time>2019-10-30T10:08:54Z</time>
      </trkpt>
      <trkpt lat="47.07043" lon="5.54762">
        <ele>242</ele>
        <time>2019-10-30T10:08:58Z</time>
      </trkpt>
      <trkpt lat="47.07041" lon="5.54755">
        <ele>242</ele>
        <time>2019-10-30T10:09:01Z</time>
      </trkpt>
      <trkpt lat="47.0704" lon="5.54747">
        <ele>242</ele>
        <time>2019-10-30T10:09:04Z</time>
      </trkpt>
      <trkpt lat="47.07041" lon="5.5474">
        <ele>241</ele>
        <time>2019-10-30T10:09:08Z</time>
      </trkpt>
      <trkpt lat="47.07042" lon="5.54733">
        <ele>242</ele>
        <time>2019-10-30T10:09:12Z</time>
      </trkpt>
      <trkpt lat="47.07036" lon="5.54706">
        <ele>242</ele>
        <time>2019-10-30T10:09:24Z</time>
      </trkpt>
      <trkpt lat="47.07029" lon="5.54694">
        <ele>241</ele>
        <time>2019-10-30T10:09:30Z</time>
      </trkpt>
      <trkpt lat="47.07032" lon="5.5468">
        <ele>242</ele>
        <time>2019-10-30T10:09:38Z</time>
      </trkpt>
      <trkpt lat="47.07035" lon="5.54668">
        <ele>243</ele>
        <time>2019-10-30T10:09:47Z</time>
      </trkpt>
      <trkpt lat="47.07039" lon="5.54641">
        <ele>243</ele>
        <time>2019-10-30T10:10:00Z</time>
      </trkpt>
      <trkpt lat="47.07037" lon="5.54628">
        <ele>243</ele>
        <time>2019-10-30T10:10:06Z</time>
      </trkpt>
      <trkpt lat="47.07029" lon="5.54603">
        <ele>244</ele>
        <time>2019-10-30T10:10:17Z</time>
      </trkpt>
      <trkpt lat="47.07029" lon="5.5457">
        <ele>245</ele>
        <time>2019-10-30T10:10:36Z</time>
      </trkpt>
      <trkpt lat="47.07025" lon="5.54552">
        <ele>246</ele>
        <time>2019-10-30T10:10:48Z</time>
      </trkpt>
      <trkpt lat="47.07025" lon="5.54537">
        <ele>246</ele>
        <time>2019-10-30T10:10:55Z</time>
      </trkpt>
      <trkpt lat="47.07029" lon="5.54522">
        <ele>246</ele>
        <time>2019-10-30T10:11:02Z</time>
      </trkpt>
      <trkpt lat="47.07025" lon="5.54509">
        <ele>247</ele>
        <time>2019-10-30T10:11:07Z</time>
      </trkpt>
      <trkpt lat="47.07028" lon="5.54496">
        <ele>247</ele>
        <time>2019-10-30T10:11:14Z</time>
      </trkpt>
      <trkpt lat="47.07034" lon="5.54468">
        <ele>247</ele>
        <time>2019-10-30T10:11:28Z</time>
      </trkpt>
      <trkpt lat="47.07031" lon="5.54455">
        <ele>247</ele>
        <time>2019-10-30T10:11:34Z</time>
      </trkpt>
      <trkpt lat="47.07036" lon="5.54442">
        <ele>246</ele>
        <time>2019-10-30T10:11:43Z</time>
      </trkpt>
      <trkpt lat="47.07034" lon="5.54428">
        <ele>246</ele>
        <time>2019-10-30T10:11:50Z</time>
      </trkpt>
      <trkpt lat="47.07031" lon="5.54414">
        <ele>246</ele>
        <time>2019-10-30T10:11:56Z</time>
      </trkpt>
      <trkpt lat="47.07032" lon="5.544">
        <ele>246</ele>
        <time>2019-10-30T10:12:05Z</time>
      </trkpt>
      <trkpt lat="47.07031" lon="5.54386">
        <ele>246</ele>
        <time>2019-10-30T10:12:14Z</time>
      </trkpt>
      <trkpt lat="47.07027" lon="5.54371">
        <ele>245</ele>
        <time>2019-10-30T10:12:23Z</time>
      </trkpt>
      <trkpt lat="47.07032" lon="5.54343">
        <ele>244</ele>
        <time>2019-10-30T10:12:37Z</time>
      </trkpt>
      <trkpt lat="47.07026" lon="5.5433">
        <ele>244</ele>
        <time>2019-10-30T10:12:41Z</time>
      </trkpt>
      <trkpt lat="47.07022" lon="5.54318">
        <ele>244</ele>
        <time>2019-10-30T10:12:48Z</time>
      </trkpt>
      <trkpt lat="47.07022" lon="5.54259">
        <ele>245</ele>
        <time>2019-10-30T10:13:19Z</time>
      </trkpt>
      <trkpt lat="47.07022" lon="5.5423">
        <ele>245</ele>
        <time>2019-10-30T10:13:31Z</time>
      </trkpt>
      <trkpt lat="47.0702" lon="5.54216">
        <ele>246</ele>
        <time>2019-10-30T10:13:37Z</time>
      </trkpt>
      <trkpt lat="47.07017" lon="5.54202">
        <ele>245</ele>
        <time>2019-10-30T10:13:44Z</time>
      </trkpt>
      <trkpt lat="47.07019" lon="5.54163">
        <ele>245</ele>
        <time>2019-10-30T10:14:09Z</time>
      </trkpt>
      <trkpt lat="47.07014" lon="5.5415">
        <ele>245</ele>
        <time>2019-10-30T10:14:15Z</time>
      </trkpt>
      <trkpt lat="47.07015" lon="5.54135">
        <ele>245</ele>
        <time>2019-10-30T10:14:20Z</time>
      </trkpt>
      <trkpt lat="47.0701" lon="5.54122">
        <ele>247</ele>
        <time>2019-10-30T10:14:30Z</time>
      </trkpt>
      <trkpt lat="47.07002" lon="5.54129">
        <ele>246</ele>
        <time>2019-10-30T10:14:54Z</time>
      </trkpt>
      <trkpt lat="47.07001" lon="5.54112">
        <ele>243</ele>
        <time>2019-10-30T10:15:11Z</time>
      </trkpt>
      <trkpt lat="47.06998" lon="5.541">
        <ele>244</ele>
        <time>2019-10-30T10:15:16Z</time>
      </trkpt>
      <trkpt lat="47.06997" lon="5.54082">
        <ele>245</ele>
        <time>2019-10-30T10:15:26Z</time>
      </trkpt>
      <trkpt lat="47.06997" lon="5.5407">
        <ele>244</ele>
        <time>2019-10-30T10:15:33Z</time>
      </trkpt>
      <trkpt lat="47.06994" lon="5.54056">
        <ele>243</ele>
        <time>2019-10-30T10:15:40Z</time>
      </trkpt>
      <trkpt lat="47.0699" lon="5.54044">
        <ele>243</ele>
        <time>2019-10-30T10:15:48Z</time>
      </trkpt>
      <trkpt lat="47.06988" lon="5.54027">
        <ele>243</ele>
        <time>2019-10-30T10:15:57Z</time>
      </trkpt>
      <trkpt lat="47.06984" lon="5.54015">
        <ele>243</ele>
        <time>2019-10-30T10:16:03Z</time>
      </trkpt>
      <trkpt lat="47.06979" lon="5.54001">
        <ele>243</ele>
        <time>2019-10-30T10:16:12Z</time>
      </trkpt>
      <trkpt lat="47.06977" lon="5.53987">
        <ele>242</ele>
        <time>2019-10-30T10:16:19Z</time>
      </trkpt>
      <trkpt lat="47.06975" lon="5.53974">
        <ele>243</ele>
        <time>2019-10-30T10:16:26Z</time>
      </trkpt>
      <trkpt lat="47.06967" lon="5.53946">
        <ele>242</ele>
        <time>2019-10-30T10:16:42Z</time>
      </trkpt>
      <trkpt lat="47.06964" lon="5.53934">
        <ele>242</ele>
        <time>2019-10-30T10:16:48Z</time>
      </trkpt>
      <trkpt lat="47.06962" lon="5.5392">
        <ele>241</ele>
        <time>2019-10-30T10:16:58Z</time>
      </trkpt>
      <trkpt lat="47.06958" lon="5.53906">
        <ele>241</ele>
        <time>2019-10-30T10:17:04Z</time>
      </trkpt>
      <trkpt lat="47.06953" lon="5.53892">
        <ele>240</ele>
        <time>2019-10-30T10:17:13Z</time>
      </trkpt>
      <trkpt lat="47.06943" lon="5.53864">
        <ele>240</ele>
        <time>2019-10-30T10:17:35Z</time>
      </trkpt>
      <trkpt lat="47.06939" lon="5.53823">
        <ele>239</ele>
        <time>2019-10-30T10:18:07Z</time>
      </trkpt>
      <trkpt lat="47.06938" lon="5.53815">
        <ele>238</ele>
        <time>2019-10-30T10:18:37Z</time>
      </trkpt>
      <trkpt lat="47.06937" lon="5.53806">
        <ele>238</ele>
        <time>2019-10-30T10:18:42Z</time>
      </trkpt>
      <trkpt lat="47.06935" lon="5.53799">
        <ele>238</ele>
        <time>2019-10-30T10:18:46Z</time>
      </trkpt>
      <trkpt lat="47.06934" lon="5.53786">
        <ele>239</ele>
        <time>2019-10-30T10:18:56Z</time>
      </trkpt>
      <trkpt lat="47.06932" lon="5.53776">
        <ele>239</ele>
        <time>2019-10-30T10:19:04Z</time>
      </trkpt>
      <trkpt lat="47.0693" lon="5.53769">
        <ele>239</ele>
        <time>2019-10-30T10:19:07Z</time>
      </trkpt>
      <trkpt lat="47.06928" lon="5.53762">
        <ele>239</ele>
        <time>2019-10-30T10:19:11Z</time>
      </trkpt>
      <trkpt lat="47.06928" lon="5.53754">
        <ele>239</ele>
        <time>2019-10-30T10:19:15Z</time>
      </trkpt>
      <trkpt lat="47.06923" lon="5.53743">
        <ele>239</ele>
        <time>2019-10-30T10:19:21Z</time>
      </trkpt>
      <trkpt lat="47.06919" lon="5.53731">
        <ele>238</ele>
        <time>2019-10-30T10:19:28Z</time>
      </trkpt>
      <trkpt lat="47.06915" lon="5.5372">
        <ele>239</ele>
        <time>2019-10-30T10:19:34Z</time>
      </trkpt>
      <trkpt lat="47.06913" lon="5.53703">
        <ele>240</ele>
        <time>2019-10-30T10:19:45Z</time>
      </trkpt>
      <trkpt lat="47.0691" lon="5.53691">
        <ele>241</ele>
        <time>2019-10-30T10:19:53Z</time>
      </trkpt>
      <trkpt lat="47.06907" lon="5.53677">
        <ele>240</ele>
        <time>2019-10-30T10:20:00Z</time>
      </trkpt>
      <trkpt lat="47.06904" lon="5.53663">
        <ele>240</ele>
        <time>2019-10-30T10:20:06Z</time>
      </trkpt>
      <trkpt lat="47.06902" lon="5.5365">
        <ele>240</ele>
        <time>2019-10-30T10:20:12Z</time>
      </trkpt>
      <trkpt lat="47.06899" lon="5.53636">
        <ele>240</ele>
        <time>2019-10-30T10:20:19Z</time>
      </trkpt>
      <trkpt lat="47.06895" lon="5.53607">
        <ele>241</ele>
        <time>2019-10-30T10:20:36Z</time>
      </trkpt>
      <trkpt lat="47.06886" lon="5.53583">
        <ele>240</ele>
        <time>2019-10-30T10:20:49Z</time>
      </trkpt>
      <trkpt lat="47.06878" lon="5.5353">
        <ele>242</ele>
        <time>2019-10-30T10:21:18Z</time>
      </trkpt>
      <trkpt lat="47.06875" lon="5.53517">
        <ele>243</ele>
        <time>2019-10-30T10:21:24Z</time>
      </trkpt>
      <trkpt lat="47.06871" lon="5.53505">
        <ele>242</ele>
        <time>2019-10-30T10:21:31Z</time>
      </trkpt>
      <trkpt lat="47.06868" lon="5.53476">
        <ele>243</ele>
        <time>2019-10-30T10:21:47Z</time>
      </trkpt>
      <trkpt lat="47.06862" lon="5.53449">
        <ele>244</ele>
        <time>2019-10-30T10:22:02Z</time>
      </trkpt>
      <trkpt lat="47.0686" lon="5.53435">
        <ele>244</ele>
        <time>2019-10-30T10:22:09Z</time>
      </trkpt>
      <trkpt lat="47.06856" lon="5.53421">
        <ele>244</ele>
        <time>2019-10-30T10:22:16Z</time>
      </trkpt>
      <trkpt lat="47.06852" lon="5.53408">
        <ele>243</ele>
        <time>2019-10-30T10:22:23Z</time>
      </trkpt>
      <trkpt lat="47.0684" lon="5.5337">
        <ele>245</ele>
        <time>2019-10-30T10:22:41Z</time>
      </trkpt>
      <trkpt lat="47.06837" lon="5.53356">
        <ele>245</ele>
        <time>2019-10-30T10:22:47Z</time>
      </trkpt>
      <trkpt lat="47.06832" lon="5.53344">
        <ele>245</ele>
        <time>2019-10-30T10:22:54Z</time>
      </trkpt>
      <trkpt lat="47.06828" lon="5.53312">
        <ele>245</ele>
        <time>2019-10-30T10:23:12Z</time>
      </trkpt>
      <trkpt lat="47.06823" lon="5.533">
        <ele>245</ele>
        <time>2019-10-30T10:23:19Z</time>
      </trkpt>
      <trkpt lat="47.06816" lon="5.53262">
        <ele>245</ele>
        <time>2019-10-30T10:23:37Z</time>
      </trkpt>
      <trkpt lat="47.06816" lon="5.53247">
        <ele>244</ele>
        <time>2019-10-30T10:23:44Z</time>
      </trkpt>
      <trkpt lat="47.06812" lon="5.53235">
        <ele>245</ele>
        <time>2019-10-30T10:23:53Z</time>
      </trkpt>
      <trkpt lat="47.06808" lon="5.53221">
        <ele>245</ele>
        <time>2019-10-30T10:23:59Z</time>
      </trkpt>
      <trkpt lat="47.06804" lon="5.53208">
        <ele>246</ele>
        <time>2019-10-30T10:24:05Z</time>
      </trkpt>
      <trkpt lat="47.06794" lon="5.5317">
        <ele>245</ele>
        <time>2019-10-30T10:24:28Z</time>
      </trkpt>
      <trkpt lat="47.06786" lon="5.5313">
        <ele>248</ele>
        <time>2019-10-30T10:24:46Z</time>
      </trkpt>
      <trkpt lat="47.06782" lon="5.53121">
        <ele>246</ele>
        <time>2019-10-30T10:24:54Z</time>
      </trkpt>
      <trkpt lat="47.0678" lon="5.53114">
        <ele>246</ele>
        <time>2019-10-30T10:25:00Z</time>
      </trkpt>
      <trkpt lat="47.06779" lon="5.53105">
        <ele>247</ele>
        <time>2019-10-30T10:25:04Z</time>
      </trkpt>
      <trkpt lat="47.06779" lon="5.53099">
        <ele>248</ele>
        <time>2019-10-30T10:25:08Z</time>
      </trkpt>
      <trkpt lat="47.06777" lon="5.53091">
        <ele>248</ele>
        <time>2019-10-30T10:25:12Z</time>
      </trkpt>
      <trkpt lat="47.06774" lon="5.53083">
        <ele>248</ele>
        <time>2019-10-30T10:25:15Z</time>
      </trkpt>
      <trkpt lat="47.06773" lon="5.53076">
        <ele>248</ele>
        <time>2019-10-30T10:25:19Z</time>
      </trkpt>
      <trkpt lat="47.06769" lon="5.53062">
        <ele>248</ele>
        <time>2019-10-30T10:25:27Z</time>
      </trkpt>
      <trkpt lat="47.06768" lon="5.53054">
        <ele>248</ele>
        <time>2019-10-30T10:25:32Z</time>
      </trkpt>
      <trkpt lat="47.06763" lon="5.53038">
        <ele>248</ele>
        <time>2019-10-30T10:25:40Z</time>
      </trkpt>
      <trkpt lat="47.0676" lon="5.53031">
        <ele>247</ele>
        <time>2019-10-30T10:25:43Z</time>
      </trkpt>
      <trkpt lat="47.06753" lon="5.5299">
        <ele>248</ele>
        <time>2019-10-30T10:26:09Z</time>
      </trkpt>
      <trkpt lat="47.06741" lon="5.52949">
        <ele>247</ele>
        <time>2019-10-30T10:26:30Z</time>
      </trkpt>
      <trkpt lat="47.0673" lon="5.52893">
        <ele>249</ele>
        <time>2019-10-30T10:27:04Z</time>
      </trkpt>
      <trkpt lat="47.06727" lon="5.52879">
        <ele>249</ele>
        <time>2019-10-30T10:27:11Z</time>
      </trkpt>
      <trkpt lat="47.06708" lon="5.52812">
        <ele>248</ele>
        <time>2019-10-30T10:27:46Z</time>
      </trkpt>
      <trkpt lat="47.06703" lon="5.52787">
        <ele>247</ele>
        <time>2019-10-30T10:28:06Z</time>
      </trkpt>
      <trkpt lat="47.06695" lon="5.5278">
        <ele>245</ele>
        <time>2019-10-30T10:28:17Z</time>
      </trkpt>
      <trkpt lat="47.06696" lon="5.52778">
        <ele>241</ele>
        <time>2019-10-30T10:29:01Z</time>
      </trkpt>
      <trkpt lat="47.06702" lon="5.52777">
        <ele>241</ele>
        <time>2019-10-30T10:29:06Z</time>
      </trkpt>
      <trkpt lat="47.06707" lon="5.52775">
        <ele>241</ele>
        <time>2019-10-30T10:29:11Z</time>
      </trkpt>
      <trkpt lat="47.06713" lon="5.52767">
        <ele>239</ele>
        <time>2019-10-30T10:30:15Z</time>
      </trkpt>
      <trkpt lat="47.06722" lon="5.5276">
        <ele>242</ele>
        <time>2019-10-30T10:30:22Z</time>
      </trkpt>
      <trkpt lat="47.06728" lon="5.52758">
        <ele>240</ele>
        <time>2019-10-30T10:30:25Z</time>
      </trkpt>
      <trkpt lat="47.06743" lon="5.5275">
        <ele>240</ele>
        <time>2019-10-30T10:30:35Z</time>
      </trkpt>
      <trkpt lat="47.06749" lon="5.52749">
        <ele>241</ele>
        <time>2019-10-30T10:30:38Z</time>
      </trkpt>
      <trkpt lat="47.06753" lon="5.52746">
        <ele>241</ele>
        <time>2019-10-30T10:30:42Z</time>
      </trkpt>
      <trkpt lat="47.06763" lon="5.5274">
        <ele>241</ele>
        <time>2019-10-30T10:30:50Z</time>
      </trkpt>
      <trkpt lat="47.06767" lon="5.52737">
        <ele>242</ele>
        <time>2019-10-30T10:30:54Z</time>
      </trkpt>
      <trkpt lat="47.06774" lon="5.52732">
        <ele>242</ele>
        <time>2019-10-30T10:30:59Z</time>
      </trkpt>
      <trkpt lat="47.06787" lon="5.52723">
        <ele>243</ele>
        <time>2019-10-30T10:31:10Z</time>
      </trkpt>
      <trkpt lat="47.06792" lon="5.52719">
        <ele>242</ele>
        <time>2019-10-30T10:31:14Z</time>
      </trkpt>
      <trkpt lat="47.06801" lon="5.52713">
        <ele>242</ele>
        <time>2019-10-30T10:31:21Z</time>
      </trkpt>
      <trkpt lat="47.06807" lon="5.52708">
        <ele>242</ele>
        <time>2019-10-30T10:31:25Z</time>
      </trkpt>
      <trkpt lat="47.06813" lon="5.52706">
        <ele>242</ele>
        <time>2019-10-30T10:31:28Z</time>
      </trkpt>
      <trkpt lat="47.06816" lon="5.52703">
        <ele>242</ele>
        <time>2019-10-30T10:31:32Z</time>
      </trkpt>
      <trkpt lat="47.06821" lon="5.52699">
        <ele>242</ele>
        <time>2019-10-30T10:31:37Z</time>
      </trkpt>
      <trkpt lat="47.06836" lon="5.5269">
        <ele>243</ele>
        <time>2019-10-30T10:31:49Z</time>
      </trkpt>
      <trkpt lat="47.0684" lon="5.52688">
        <ele>243</ele>
        <time>2019-10-30T10:31:52Z</time>
      </trkpt>
      <trkpt lat="47.06844" lon="5.52684">
        <ele>243</ele>
        <time>2019-10-30T10:31:55Z</time>
      </trkpt>
      <trkpt lat="47.06849" lon="5.52681">
        <ele>242</ele>
        <time>2019-10-30T10:31:59Z</time>
      </trkpt>
      <trkpt lat="47.06858" lon="5.52672">
        <ele>242</ele>
        <time>2019-10-30T10:32:07Z</time>
      </trkpt>
      <trkpt lat="47.06862" lon="5.52669">
        <ele>242</ele>
        <time>2019-10-30T10:32:11Z</time>
      </trkpt>
      <trkpt lat="47.06866" lon="5.52666">
        <ele>242</ele>
        <time>2019-10-30T10:32:14Z</time>
      </trkpt>
      <trkpt lat="47.06871" lon="5.52661">
        <ele>241</ele>
        <time>2019-10-30T10:32:19Z</time>
      </trkpt>
      <trkpt lat="47.06887" lon="5.52653">
        <ele>239</ele>
        <time>2019-10-30T10:32:30Z</time>
      </trkpt>
      <trkpt lat="47.0691" lon="5.52639">
        <ele>241</ele>
        <time>2019-10-30T10:32:48Z</time>
      </trkpt>
      <trkpt lat="47.06915" lon="5.52635">
        <ele>241</ele>
        <time>2019-10-30T10:32:52Z</time>
      </trkpt>
      <trkpt lat="47.06919" lon="5.52632">
        <ele>241</ele>
        <time>2019-10-30T10:32:55Z</time>
      </trkpt>
      <trkpt lat="47.06925" lon="5.52628">
        <ele>242</ele>
        <time>2019-10-30T10:32:59Z</time>
      </trkpt>
      <trkpt lat="47.06934" lon="5.52624">
        <ele>241</ele>
        <time>2019-10-30T10:33:07Z</time>
      </trkpt>
      <trkpt lat="47.06942" lon="5.52618">
        <ele>241</ele>
        <time>2019-10-30T10:33:14Z</time>
      </trkpt>
      <trkpt lat="47.06947" lon="5.52615">
        <ele>241</ele>
        <time>2019-10-30T10:33:18Z</time>
      </trkpt>
      <trkpt lat="47.06951" lon="5.52611">
        <ele>241</ele>
        <time>2019-10-30T10:33:22Z</time>
      </trkpt>
      <trkpt lat="47.06983" lon="5.52584">
        <ele>242</ele>
        <time>2019-10-30T10:33:49Z</time>
      </trkpt>
      <trkpt lat="47.06993" lon="5.52579">
        <ele>241</ele>
        <time>2019-10-30T10:33:55Z</time>
      </trkpt>
      <trkpt lat="47.06998" lon="5.52576">
        <ele>242</ele>
        <time>2019-10-30T10:33:59Z</time>
      </trkpt>
      <trkpt lat="47.07002" lon="5.52573">
        <ele>241</ele>
        <time>2019-10-30T10:34:02Z</time>
      </trkpt>
      <trkpt lat="47.0701" lon="5.52564">
        <ele>242</ele>
        <time>2019-10-30T10:34:10Z</time>
      </trkpt>
      <trkpt lat="47.07037" lon="5.52549">
        <ele>242</ele>
        <time>2019-10-30T10:34:30Z</time>
      </trkpt>
      <trkpt lat="47.07046" lon="5.52544">
        <ele>243</ele>
        <time>2019-10-30T10:34:35Z</time>
      </trkpt>
      <trkpt lat="47.07054" lon="5.52538">
        <ele>243</ele>
        <time>2019-10-30T10:34:41Z</time>
      </trkpt>
      <trkpt lat="47.07061" lon="5.52528">
        <ele>243</ele>
        <time>2019-10-30T10:34:49Z</time>
      </trkpt>
      <trkpt lat="47.07078" lon="5.52514">
        <ele>242</ele>
        <time>2019-10-30T10:35:04Z</time>
      </trkpt>
      <trkpt lat="47.07087" lon="5.52507">
        <ele>243</ele>
        <time>2019-10-30T10:35:12Z</time>
      </trkpt>
      <trkpt lat="47.07096" lon="5.52501">
        <ele>242</ele>
        <time>2019-10-30T10:35:19Z</time>
      </trkpt>
      <trkpt lat="47.07105" lon="5.52495">
        <ele>243</ele>
        <time>2019-10-30T10:35:26Z</time>
      </trkpt>
      <trkpt lat="47.07114" lon="5.52491">
        <ele>242</ele>
        <time>2019-10-30T10:35:33Z</time>
      </trkpt>
      <trkpt lat="47.07133" lon="5.52479">
        <ele>242</ele>
        <time>2019-10-30T10:35:47Z</time>
      </trkpt>
      <trkpt lat="47.07168" lon="5.52453">
        <ele>239</ele>
        <time>2019-10-30T10:36:17Z</time>
      </trkpt>
      <trkpt lat="47.07175" lon="5.52444">
        <ele>239</ele>
        <time>2019-10-30T10:36:25Z</time>
      </trkpt>
      <trkpt lat="47.07211" lon="5.5242">
        <ele>240</ele>
        <time>2019-10-30T10:36:53Z</time>
      </trkpt>
      <trkpt lat="47.07238" lon="5.52402">
        <ele>240</ele>
        <time>2019-10-30T10:37:14Z</time>
      </trkpt>
      <trkpt lat="47.07246" lon="5.52396">
        <ele>240</ele>
        <time>2019-10-30T10:37:20Z</time>
      </trkpt>
      <trkpt lat="47.07286" lon="5.52369">
        <ele>240</ele>
        <time>2019-10-30T10:37:52Z</time>
      </trkpt>
      <trkpt lat="47.07296" lon="5.52362">
        <ele>240</ele>
        <time>2019-10-30T10:38:00Z</time>
      </trkpt>
      <trkpt lat="47.07302" lon="5.52357">
        <ele>241</ele>
        <time>2019-10-30T10:38:08Z</time>
      </trkpt>
      <trkpt lat="47.07307" lon="5.52356">
        <ele>240</ele>
        <time>2019-10-30T10:38:11Z</time>
      </trkpt>
      <trkpt lat="47.0731" lon="5.52353">
        <ele>241</ele>
        <time>2019-10-30T10:38:15Z</time>
      </trkpt>
      <trkpt lat="47.0732" lon="5.52345">
        <ele>239</ele>
        <time>2019-10-30T10:38:24Z</time>
      </trkpt>
      <trkpt lat="47.07324" lon="5.52343">
        <ele>239</ele>
        <time>2019-10-30T10:38:28Z</time>
      </trkpt>
      <trkpt lat="47.07328" lon="5.52339">
        <ele>238</ele>
        <time>2019-10-30T10:38:31Z</time>
      </trkpt>
      <trkpt lat="47.07338" lon="5.52338">
        <ele>238</ele>
        <time>2019-10-30T10:38:39Z</time>
      </trkpt>
      <trkpt lat="47.07345" lon="5.52348">
        <ele>239</ele>
        <time>2019-10-30T10:38:47Z</time>
      </trkpt>
      <trkpt lat="47.07352" lon="5.52356">
        <ele>238</ele>
        <time>2019-10-30T10:38:54Z</time>
      </trkpt>
      <trkpt lat="47.07371" lon="5.52371">
        <ele>239</ele>
        <time>2019-10-30T10:39:10Z</time>
      </trkpt>
      <trkpt lat="47.07388" lon="5.52384">
        <ele>238</ele>
        <time>2019-10-30T10:39:30Z</time>
      </trkpt>
      <trkpt lat="47.07405" lon="5.52396">
        <ele>237</ele>
        <time>2019-10-30T10:39:47Z</time>
      </trkpt>
      <trkpt lat="47.07413" lon="5.52403">
        <ele>237</ele>
        <time>2019-10-30T10:39:53Z</time>
      </trkpt>
      <trkpt lat="47.0742" lon="5.52413">
        <ele>236</ele>
        <time>2019-10-30T10:40:00Z</time>
      </trkpt>
      <trkpt lat="47.0743" lon="5.52418">
        <ele>237</ele>
        <time>2019-10-30T10:40:07Z</time>
      </trkpt>
      <trkpt lat="47.07439" lon="5.52418">
        <ele>236</ele>
        <time>2019-10-30T10:40:16Z</time>
      </trkpt>
      <trkpt lat="47.07448" lon="5.52422">
        <ele>235</ele>
        <time>2019-10-30T10:40:24Z</time>
      </trkpt>
      <trkpt lat="47.07452" lon="5.52443">
        <ele>235</ele>
        <time>2019-10-30T10:40:41Z</time>
      </trkpt>
      <trkpt lat="47.07449" lon="5.52456">
        <ele>234</ele>
        <time>2019-10-30T10:40:50Z</time>
      </trkpt>
      <trkpt lat="47.07446" lon="5.52461">
        <ele>234</ele>
        <time>2019-10-30T10:40:55Z</time>
      </trkpt>
      <trkpt lat="47.07443" lon="5.52468">
        <ele>234</ele>
        <time>2019-10-30T10:40:59Z</time>
      </trkpt>
    </trkseg>
  </trk>
</gpx>